<?xml version="1.0" encoding="UTF-8" standalone="no" ?>
<gpx xmlns="http://www.topografix.com/GPX/1/1" xmlns:xsi="http://www.w3.org/2001/XMLSchema-instance" xsi:schemaLocation="http://www.topografix.com/GPX/1/1 http://www.topografix.com/GPX/1/1/gpx.xsd" version="1.1" creator="VisuGPX - https://www.visugpx.com">
  <metadata>
    <name>rando pedestre</name>
    <desc><![CDATA[angecourt_ autrecourt_vllers-devant-mouzon_petit-remilly_ remilly_ angecourt]]></desc>
  </metadata>
  <trk>
    <name><![CDATA[Tracé actuel: 19 FEV 2019 12:57]]></name>
    <trkseg>
      <trkpt lat="49.63432" lon="4.98067">
        <ele>236.14</ele>
        <time>2019-02-19T11:57:34Z</time>
      </trkpt>
      <trkpt lat="49.63431" lon="4.98073">
        <ele>230.85</ele>
        <time>2019-02-19T11:57:52Z</time>
      </trkpt>
      <trkpt lat="49.63435" lon="4.98073">
        <ele>227.01</ele>
        <time>2019-02-19T11:58:19Z</time>
      </trkpt>
      <trkpt lat="49.63433" lon="4.98081">
        <ele>210.19</ele>
        <time>2019-02-19T11:58:35Z</time>
      </trkpt>
      <trkpt lat="49.63446" lon="4.9805">
        <ele>183.75</ele>
        <time>2019-02-19T11:58:52Z</time>
      </trkpt>
      <trkpt lat="49.63441" lon="4.98046">
        <ele>179.42</ele>
        <time>2019-02-19T11:59:09Z</time>
      </trkpt>
      <trkpt lat="49.63434" lon="4.98034">
        <ele>176.54</ele>
        <time>2019-02-19T11:59:27Z</time>
      </trkpt>
      <trkpt lat="49.63426" lon="4.98025">
        <ele>174.62</ele>
        <time>2019-02-19T11:59:40Z</time>
      </trkpt>
      <trkpt lat="49.63417" lon="4.98002">
        <ele>162.12</ele>
        <time>2019-02-19T11:59:57Z</time>
      </trkpt>
      <trkpt lat="49.63403" lon="4.97973">
        <ele>158.75</ele>
        <time>2019-02-19T12:00:16Z</time>
      </trkpt>
      <trkpt lat="49.63387" lon="4.97949">
        <ele>162.12</ele>
        <time>2019-02-19T12:00:33Z</time>
      </trkpt>
      <trkpt lat="49.63377" lon="4.97936">
        <ele>166.45</ele>
        <time>2019-02-19T12:00:47Z</time>
      </trkpt>
      <trkpt lat="49.63375" lon="4.97936">
        <ele>166.45</ele>
        <time>2019-02-19T12:00:49Z</time>
      </trkpt>
      <trkpt lat="49.63364" lon="4.97939">
        <ele>167.89</ele>
        <time>2019-02-19T12:01:03Z</time>
      </trkpt>
      <trkpt lat="49.63353" lon="4.97943">
        <ele>170.29</ele>
        <time>2019-02-19T12:01:16Z</time>
      </trkpt>
      <trkpt lat="49.63334" lon="4.97957">
        <ele>170.77</ele>
        <time>2019-02-19T12:01:33Z</time>
      </trkpt>
      <trkpt lat="49.63312" lon="4.97969">
        <ele>170.77</ele>
        <time>2019-02-19T12:01:51Z</time>
      </trkpt>
      <trkpt lat="49.63292" lon="4.97978">
        <ele>169.33</ele>
        <time>2019-02-19T12:02:10Z</time>
      </trkpt>
      <trkpt lat="49.63282" lon="4.97982">
        <ele>168.85</ele>
        <time>2019-02-19T12:02:19Z</time>
      </trkpt>
      <trkpt lat="49.63277" lon="4.97983">
        <ele>167.89</ele>
        <time>2019-02-19T12:02:24Z</time>
      </trkpt>
      <trkpt lat="49.63258" lon="4.97987">
        <ele>167.41</ele>
        <time>2019-02-19T12:02:40Z</time>
      </trkpt>
      <trkpt lat="49.63243" lon="4.97995">
        <ele>168.85</ele>
        <time>2019-02-19T12:02:55Z</time>
      </trkpt>
      <trkpt lat="49.63227" lon="4.98006">
        <ele>174.62</ele>
        <time>2019-02-19T12:03:13Z</time>
      </trkpt>
      <trkpt lat="49.6321" lon="4.98016">
        <ele>180.87</ele>
        <time>2019-02-19T12:03:31Z</time>
      </trkpt>
      <trkpt lat="49.63192" lon="4.98029">
        <ele>183.27</ele>
        <time>2019-02-19T12:03:49Z</time>
      </trkpt>
      <trkpt lat="49.63171" lon="4.98047">
        <ele>182.31</ele>
        <time>2019-02-19T12:04:07Z</time>
      </trkpt>
      <trkpt lat="49.63155" lon="4.98058">
        <ele>181.83</ele>
        <time>2019-02-19T12:04:22Z</time>
      </trkpt>
      <trkpt lat="49.63142" lon="4.98065">
        <ele>183.27</ele>
        <time>2019-02-19T12:04:36Z</time>
      </trkpt>
      <trkpt lat="49.63133" lon="4.98069">
        <ele>184.23</ele>
        <time>2019-02-19T12:04:49Z</time>
      </trkpt>
      <trkpt lat="49.63117" lon="4.98082">
        <ele>185.19</ele>
        <time>2019-02-19T12:05:05Z</time>
      </trkpt>
      <trkpt lat="49.63106" lon="4.98092">
        <ele>185.19</ele>
        <time>2019-02-19T12:05:15Z</time>
      </trkpt>
      <trkpt lat="49.63093" lon="4.98105">
        <ele>185.67</ele>
        <time>2019-02-19T12:05:30Z</time>
      </trkpt>
      <trkpt lat="49.6308" lon="4.98116">
        <ele>185.67</ele>
        <time>2019-02-19T12:05:44Z</time>
      </trkpt>
      <trkpt lat="49.63068" lon="4.98128">
        <ele>186.63</ele>
        <time>2019-02-19T12:05:59Z</time>
      </trkpt>
      <trkpt lat="49.63056" lon="4.98137">
        <ele>190.96</ele>
        <time>2019-02-19T12:06:13Z</time>
      </trkpt>
      <trkpt lat="49.63044" lon="4.98146">
        <ele>190</ele>
        <time>2019-02-19T12:06:27Z</time>
      </trkpt>
      <trkpt lat="49.63034" lon="4.98156">
        <ele>190.48</ele>
        <time>2019-02-19T12:06:39Z</time>
      </trkpt>
      <trkpt lat="49.63022" lon="4.98166">
        <ele>193.84</ele>
        <time>2019-02-19T12:06:53Z</time>
      </trkpt>
      <trkpt lat="49.63008" lon="4.98171">
        <ele>197.69</ele>
        <time>2019-02-19T12:07:07Z</time>
      </trkpt>
      <trkpt lat="49.62999" lon="4.98172">
        <ele>202.49</ele>
        <time>2019-02-19T12:07:19Z</time>
      </trkpt>
      <trkpt lat="49.62987" lon="4.98173">
        <ele>204.9</ele>
        <time>2019-02-19T12:07:30Z</time>
      </trkpt>
      <trkpt lat="49.62973" lon="4.98177">
        <ele>203.46</ele>
        <time>2019-02-19T12:07:43Z</time>
      </trkpt>
      <trkpt lat="49.62957" lon="4.98181">
        <ele>202.98</ele>
        <time>2019-02-19T12:07:57Z</time>
      </trkpt>
      <trkpt lat="49.62946" lon="4.98185">
        <ele>203.46</ele>
        <time>2019-02-19T12:08:10Z</time>
      </trkpt>
      <trkpt lat="49.62936" lon="4.98187">
        <ele>203.94</ele>
        <time>2019-02-19T12:08:22Z</time>
      </trkpt>
      <trkpt lat="49.62923" lon="4.98192">
        <ele>203.94</ele>
        <time>2019-02-19T12:08:34Z</time>
      </trkpt>
      <trkpt lat="49.62912" lon="4.98193">
        <ele>205.86</ele>
        <time>2019-02-19T12:08:48Z</time>
      </trkpt>
      <trkpt lat="49.62904" lon="4.98194">
        <ele>207.3</ele>
        <time>2019-02-19T12:09:01Z</time>
      </trkpt>
      <trkpt lat="49.62895" lon="4.98197">
        <ele>206.34</ele>
        <time>2019-02-19T12:09:15Z</time>
      </trkpt>
      <trkpt lat="49.62886" lon="4.98203">
        <ele>206.34</ele>
        <time>2019-02-19T12:09:27Z</time>
      </trkpt>
      <trkpt lat="49.62874" lon="4.98211">
        <ele>206.34</ele>
        <time>2019-02-19T12:09:42Z</time>
      </trkpt>
      <trkpt lat="49.62856" lon="4.9822">
        <ele>205.86</ele>
        <time>2019-02-19T12:09:56Z</time>
      </trkpt>
      <trkpt lat="49.62839" lon="4.98227">
        <ele>209.7</ele>
        <time>2019-02-19T12:10:10Z</time>
      </trkpt>
      <trkpt lat="49.6282" lon="4.9823">
        <ele>214.51</ele>
        <time>2019-02-19T12:10:25Z</time>
      </trkpt>
      <trkpt lat="49.62802" lon="4.9823">
        <ele>218.84</ele>
        <time>2019-02-19T12:10:39Z</time>
      </trkpt>
      <trkpt lat="49.62787" lon="4.98233">
        <ele>221.24</ele>
        <time>2019-02-19T12:10:52Z</time>
      </trkpt>
      <trkpt lat="49.62773" lon="4.98239">
        <ele>222.2</ele>
        <time>2019-02-19T12:11:05Z</time>
      </trkpt>
      <trkpt lat="49.62761" lon="4.98244">
        <ele>222.2</ele>
        <time>2019-02-19T12:11:20Z</time>
      </trkpt>
      <trkpt lat="49.62755" lon="4.98247">
        <ele>222.68</ele>
        <time>2019-02-19T12:11:35Z</time>
      </trkpt>
      <trkpt lat="49.62745" lon="4.98254">
        <ele>221.72</ele>
        <time>2019-02-19T12:11:51Z</time>
      </trkpt>
      <trkpt lat="49.62726" lon="4.98268">
        <ele>219.32</ele>
        <time>2019-02-19T12:12:05Z</time>
      </trkpt>
      <trkpt lat="49.62711" lon="4.9828">
        <ele>217.4</ele>
        <time>2019-02-19T12:12:19Z</time>
      </trkpt>
      <trkpt lat="49.62697" lon="4.98295">
        <ele>216.91</ele>
        <time>2019-02-19T12:12:33Z</time>
      </trkpt>
      <trkpt lat="49.6269" lon="4.98303">
        <ele>216.43</ele>
        <time>2019-02-19T12:12:41Z</time>
      </trkpt>
      <trkpt lat="49.62678" lon="4.98317">
        <ele>218.36</ele>
        <time>2019-02-19T12:12:54Z</time>
      </trkpt>
      <trkpt lat="49.62663" lon="4.98333">
        <ele>221.72</ele>
        <time>2019-02-19T12:13:11Z</time>
      </trkpt>
      <trkpt lat="49.62652" lon="4.98348">
        <ele>223.64</ele>
        <time>2019-02-19T12:13:25Z</time>
      </trkpt>
      <trkpt lat="49.62641" lon="4.98362">
        <ele>225.09</ele>
        <time>2019-02-19T12:13:39Z</time>
      </trkpt>
      <trkpt lat="49.6263" lon="4.98378">
        <ele>227.97</ele>
        <time>2019-02-19T12:13:55Z</time>
      </trkpt>
      <trkpt lat="49.62617" lon="4.984">
        <ele>231.81</ele>
        <time>2019-02-19T12:14:12Z</time>
      </trkpt>
      <trkpt lat="49.62615" lon="4.98406">
        <ele>233.26</ele>
        <time>2019-02-19T12:14:16Z</time>
      </trkpt>
      <trkpt lat="49.62608" lon="4.98423">
        <ele>236.62</ele>
        <time>2019-02-19T12:14:28Z</time>
      </trkpt>
      <trkpt lat="49.626" lon="4.98445">
        <ele>239.99</ele>
        <time>2019-02-19T12:14:44Z</time>
      </trkpt>
      <trkpt lat="49.62592" lon="4.98465">
        <ele>241.91</ele>
        <time>2019-02-19T12:14:58Z</time>
      </trkpt>
      <trkpt lat="49.62583" lon="4.98485">
        <ele>244.79</ele>
        <time>2019-02-19T12:15:14Z</time>
      </trkpt>
      <trkpt lat="49.62575" lon="4.98502">
        <ele>244.31</ele>
        <time>2019-02-19T12:15:30Z</time>
      </trkpt>
      <trkpt lat="49.62569" lon="4.98511">
        <ele>245.75</ele>
        <time>2019-02-19T12:15:48Z</time>
      </trkpt>
      <trkpt lat="49.62559" lon="4.98532">
        <ele>247.2</ele>
        <time>2019-02-19T12:16:05Z</time>
      </trkpt>
      <trkpt lat="49.62551" lon="4.98549">
        <ele>244.79</ele>
        <time>2019-02-19T12:16:21Z</time>
      </trkpt>
      <trkpt lat="49.62546" lon="4.98553">
        <ele>244.79</ele>
        <time>2019-02-19T12:16:35Z</time>
      </trkpt>
      <trkpt lat="49.62534" lon="4.98559">
        <ele>246.72</ele>
        <time>2019-02-19T12:16:50Z</time>
      </trkpt>
      <trkpt lat="49.62516" lon="4.9856">
        <ele>250.56</ele>
        <time>2019-02-19T12:17:07Z</time>
      </trkpt>
      <trkpt lat="49.62499" lon="4.98552">
        <ele>252.48</ele>
        <time>2019-02-19T12:17:23Z</time>
      </trkpt>
      <trkpt lat="49.62485" lon="4.98543">
        <ele>256.33</ele>
        <time>2019-02-19T12:17:36Z</time>
      </trkpt>
      <trkpt lat="49.62469" lon="4.9853">
        <ele>258.73</ele>
        <time>2019-02-19T12:17:51Z</time>
      </trkpt>
      <trkpt lat="49.62454" lon="4.98519">
        <ele>260.17</ele>
        <time>2019-02-19T12:18:06Z</time>
      </trkpt>
      <trkpt lat="49.6244" lon="4.9851">
        <ele>262.1</ele>
        <time>2019-02-19T12:18:21Z</time>
      </trkpt>
      <trkpt lat="49.62433" lon="4.98505">
        <ele>262.58</ele>
        <time>2019-02-19T12:18:28Z</time>
      </trkpt>
      <trkpt lat="49.62419" lon="4.98493">
        <ele>261.62</ele>
        <time>2019-02-19T12:18:43Z</time>
      </trkpt>
      <trkpt lat="49.62408" lon="4.98486">
        <ele>260.17</ele>
        <time>2019-02-19T12:18:58Z</time>
      </trkpt>
      <trkpt lat="49.62394" lon="4.98476">
        <ele>260.65</ele>
        <time>2019-02-19T12:19:12Z</time>
      </trkpt>
      <trkpt lat="49.62375" lon="4.98465">
        <ele>264.02</ele>
        <time>2019-02-19T12:19:29Z</time>
      </trkpt>
      <trkpt lat="49.62359" lon="4.98458">
        <ele>266.42</ele>
        <time>2019-02-19T12:19:42Z</time>
      </trkpt>
      <trkpt lat="49.62342" lon="4.98446">
        <ele>266.42</ele>
        <time>2019-02-19T12:19:58Z</time>
      </trkpt>
      <trkpt lat="49.62327" lon="4.98435">
        <ele>267.86</ele>
        <time>2019-02-19T12:20:14Z</time>
      </trkpt>
      <trkpt lat="49.62317" lon="4.98422">
        <ele>266.42</ele>
        <time>2019-02-19T12:20:32Z</time>
      </trkpt>
      <trkpt lat="49.62313" lon="4.98414">
        <ele>266.42</ele>
        <time>2019-02-19T12:20:48Z</time>
      </trkpt>
      <trkpt lat="49.62305" lon="4.98401">
        <ele>266.42</ele>
        <time>2019-02-19T12:21:04Z</time>
      </trkpt>
      <trkpt lat="49.62298" lon="4.98388">
        <ele>267.38</ele>
        <time>2019-02-19T12:21:17Z</time>
      </trkpt>
      <trkpt lat="49.62292" lon="4.98378">
        <ele>267.86</ele>
        <time>2019-02-19T12:21:31Z</time>
      </trkpt>
      <trkpt lat="49.62288" lon="4.98368">
        <ele>269.79</ele>
        <time>2019-02-19T12:21:43Z</time>
      </trkpt>
      <trkpt lat="49.62284" lon="4.98362">
        <ele>271.71</ele>
        <time>2019-02-19T12:21:58Z</time>
      </trkpt>
      <trkpt lat="49.62273" lon="4.98351">
        <ele>270.27</ele>
        <time>2019-02-19T12:22:11Z</time>
      </trkpt>
      <trkpt lat="49.62265" lon="4.9834">
        <ele>269.79</ele>
        <time>2019-02-19T12:22:28Z</time>
      </trkpt>
      <trkpt lat="49.6225" lon="4.98328">
        <ele>269.31</ele>
        <time>2019-02-19T12:22:41Z</time>
      </trkpt>
      <trkpt lat="49.62235" lon="4.98314">
        <ele>266.9</ele>
        <time>2019-02-19T12:22:55Z</time>
      </trkpt>
      <trkpt lat="49.62218" lon="4.98302">
        <ele>263.06</ele>
        <time>2019-02-19T12:23:09Z</time>
      </trkpt>
      <trkpt lat="49.62206" lon="4.98293">
        <ele>260.65</ele>
        <time>2019-02-19T12:23:22Z</time>
      </trkpt>
      <trkpt lat="49.62194" lon="4.98289">
        <ele>258.73</ele>
        <time>2019-02-19T12:23:29Z</time>
      </trkpt>
      <trkpt lat="49.62169" lon="4.98277">
        <ele>257.29</ele>
        <time>2019-02-19T12:23:44Z</time>
      </trkpt>
      <trkpt lat="49.62151" lon="4.98266">
        <ele>253.93</ele>
        <time>2019-02-19T12:23:56Z</time>
      </trkpt>
      <trkpt lat="49.62132" lon="4.98253">
        <ele>253.93</ele>
        <time>2019-02-19T12:24:11Z</time>
      </trkpt>
      <trkpt lat="49.62119" lon="4.98242">
        <ele>252.96</ele>
        <time>2019-02-19T12:24:24Z</time>
      </trkpt>
      <trkpt lat="49.6211" lon="4.98236">
        <ele>253.44</ele>
        <time>2019-02-19T12:24:39Z</time>
      </trkpt>
      <trkpt lat="49.62103" lon="4.9823">
        <ele>257.29</ele>
        <time>2019-02-19T12:24:54Z</time>
      </trkpt>
      <trkpt lat="49.62092" lon="4.98225">
        <ele>260.65</ele>
        <time>2019-02-19T12:25:06Z</time>
      </trkpt>
      <trkpt lat="49.62072" lon="4.98219">
        <ele>259.21</ele>
        <time>2019-02-19T12:25:22Z</time>
      </trkpt>
      <trkpt lat="49.62054" lon="4.98213">
        <ele>259.69</ele>
        <time>2019-02-19T12:25:36Z</time>
      </trkpt>
      <trkpt lat="49.62031" lon="4.98207">
        <ele>263.06</ele>
        <time>2019-02-19T12:25:51Z</time>
      </trkpt>
      <trkpt lat="49.62014" lon="4.98198">
        <ele>269.31</ele>
        <time>2019-02-19T12:26:05Z</time>
      </trkpt>
      <trkpt lat="49.62003" lon="4.98191">
        <ele>271.71</ele>
        <time>2019-02-19T12:26:19Z</time>
      </trkpt>
      <trkpt lat="49.6199" lon="4.98185">
        <ele>275.56</ele>
        <time>2019-02-19T12:26:31Z</time>
      </trkpt>
      <trkpt lat="49.61979" lon="4.9818">
        <ele>276.52</ele>
        <time>2019-02-19T12:26:43Z</time>
      </trkpt>
      <trkpt lat="49.61964" lon="4.98171">
        <ele>277.48</ele>
        <time>2019-02-19T12:26:56Z</time>
      </trkpt>
      <trkpt lat="49.61952" lon="4.98165">
        <ele>277.96</ele>
        <time>2019-02-19T12:27:09Z</time>
      </trkpt>
      <trkpt lat="49.61943" lon="4.98161">
        <ele>277.96</ele>
        <time>2019-02-19T12:27:21Z</time>
      </trkpt>
      <trkpt lat="49.61936" lon="4.98157">
        <ele>278.44</ele>
        <time>2019-02-19T12:27:33Z</time>
      </trkpt>
      <trkpt lat="49.61929" lon="4.98154">
        <ele>278.92</ele>
        <time>2019-02-19T12:27:45Z</time>
      </trkpt>
      <trkpt lat="49.61919" lon="4.98149">
        <ele>279.4</ele>
        <time>2019-02-19T12:27:58Z</time>
      </trkpt>
      <trkpt lat="49.61911" lon="4.98147">
        <ele>277.96</ele>
        <time>2019-02-19T12:28:10Z</time>
      </trkpt>
      <trkpt lat="49.61895" lon="4.98146">
        <ele>276.04</ele>
        <time>2019-02-19T12:28:22Z</time>
      </trkpt>
      <trkpt lat="49.61882" lon="4.98153">
        <ele>279.88</ele>
        <time>2019-02-19T12:28:37Z</time>
      </trkpt>
      <trkpt lat="49.61862" lon="4.98168">
        <ele>282.28</ele>
        <time>2019-02-19T12:28:53Z</time>
      </trkpt>
      <trkpt lat="49.61846" lon="4.98178">
        <ele>284.21</ele>
        <time>2019-02-19T12:29:07Z</time>
      </trkpt>
      <trkpt lat="49.6183" lon="4.98181">
        <ele>286.13</ele>
        <time>2019-02-19T12:29:21Z</time>
      </trkpt>
      <trkpt lat="49.61829" lon="4.98181">
        <ele>287.57</ele>
        <time>2019-02-19T12:29:37Z</time>
      </trkpt>
      <trkpt lat="49.61823" lon="4.98195">
        <ele>289.01</ele>
        <time>2019-02-19T12:29:50Z</time>
      </trkpt>
      <trkpt lat="49.61816" lon="4.98217">
        <ele>290.94</ele>
        <time>2019-02-19T12:30:05Z</time>
      </trkpt>
      <trkpt lat="49.61815" lon="4.98218">
        <ele>290.94</ele>
        <time>2019-02-19T12:30:08Z</time>
      </trkpt>
      <trkpt lat="49.61808" lon="4.98245">
        <ele>290.94</ele>
        <time>2019-02-19T12:30:23Z</time>
      </trkpt>
      <trkpt lat="49.61805" lon="4.98269">
        <ele>289.01</ele>
        <time>2019-02-19T12:30:38Z</time>
      </trkpt>
      <trkpt lat="49.61802" lon="4.98294">
        <ele>288.05</ele>
        <time>2019-02-19T12:30:54Z</time>
      </trkpt>
      <trkpt lat="49.61799" lon="4.98321">
        <ele>287.57</ele>
        <time>2019-02-19T12:31:09Z</time>
      </trkpt>
      <trkpt lat="49.61796" lon="4.98343">
        <ele>287.57</ele>
        <time>2019-02-19T12:31:25Z</time>
      </trkpt>
      <trkpt lat="49.61791" lon="4.98371">
        <ele>285.65</ele>
        <time>2019-02-19T12:31:43Z</time>
      </trkpt>
      <trkpt lat="49.61785" lon="4.98392">
        <ele>287.09</ele>
        <time>2019-02-19T12:31:58Z</time>
      </trkpt>
      <trkpt lat="49.61776" lon="4.98416">
        <ele>291.9</ele>
        <time>2019-02-19T12:32:14Z</time>
      </trkpt>
      <trkpt lat="49.61766" lon="4.98444">
        <ele>294.78</ele>
        <time>2019-02-19T12:32:29Z</time>
      </trkpt>
      <trkpt lat="49.6176" lon="4.9847">
        <ele>292.86</ele>
        <time>2019-02-19T12:32:45Z</time>
      </trkpt>
      <trkpt lat="49.61755" lon="4.98497">
        <ele>288.53</ele>
        <time>2019-02-19T12:33:02Z</time>
      </trkpt>
      <trkpt lat="49.6175" lon="4.9852">
        <ele>288.53</ele>
        <time>2019-02-19T12:33:17Z</time>
      </trkpt>
      <trkpt lat="49.61746" lon="4.98545">
        <ele>288.53</ele>
        <time>2019-02-19T12:33:34Z</time>
      </trkpt>
      <trkpt lat="49.61741" lon="4.98571">
        <ele>287.57</ele>
        <time>2019-02-19T12:33:51Z</time>
      </trkpt>
      <trkpt lat="49.6174" lon="4.98599">
        <ele>284.21</ele>
        <time>2019-02-19T12:34:06Z</time>
      </trkpt>
      <trkpt lat="49.61736" lon="4.9862">
        <ele>281.32</ele>
        <time>2019-02-19T12:34:20Z</time>
      </trkpt>
      <trkpt lat="49.6173" lon="4.98644">
        <ele>283.73</ele>
        <time>2019-02-19T12:34:36Z</time>
      </trkpt>
      <trkpt lat="49.61723" lon="4.98678">
        <ele>285.17</ele>
        <time>2019-02-19T12:34:55Z</time>
      </trkpt>
      <trkpt lat="49.61716" lon="4.98693">
        <ele>285.17</ele>
        <time>2019-02-19T12:35:09Z</time>
      </trkpt>
      <trkpt lat="49.61708" lon="4.98708">
        <ele>286.13</ele>
        <time>2019-02-19T12:35:21Z</time>
      </trkpt>
      <trkpt lat="49.61696" lon="4.98731">
        <ele>286.61</ele>
        <time>2019-02-19T12:35:38Z</time>
      </trkpt>
      <trkpt lat="49.61683" lon="4.98758">
        <ele>287.57</ele>
        <time>2019-02-19T12:35:57Z</time>
      </trkpt>
      <trkpt lat="49.61672" lon="4.98781">
        <ele>287.09</ele>
        <time>2019-02-19T12:36:14Z</time>
      </trkpt>
      <trkpt lat="49.61663" lon="4.98796">
        <ele>287.09</ele>
        <time>2019-02-19T12:36:30Z</time>
      </trkpt>
      <trkpt lat="49.61661" lon="4.98799">
        <ele>286.61</ele>
        <time>2019-02-19T12:36:33Z</time>
      </trkpt>
      <trkpt lat="49.61655" lon="4.98812">
        <ele>284.69</ele>
        <time>2019-02-19T12:36:48Z</time>
      </trkpt>
      <trkpt lat="49.61643" lon="4.98837">
        <ele>286.13</ele>
        <time>2019-02-19T12:37:04Z</time>
      </trkpt>
      <trkpt lat="49.61635" lon="4.98848">
        <ele>288.05</ele>
        <time>2019-02-19T12:37:20Z</time>
      </trkpt>
      <trkpt lat="49.6163" lon="4.98863">
        <ele>288.53</ele>
        <time>2019-02-19T12:37:34Z</time>
      </trkpt>
      <trkpt lat="49.61624" lon="4.98881">
        <ele>289.01</ele>
        <time>2019-02-19T12:37:49Z</time>
      </trkpt>
      <trkpt lat="49.61619" lon="4.98892">
        <ele>288.05</ele>
        <time>2019-02-19T12:38:06Z</time>
      </trkpt>
      <trkpt lat="49.61612" lon="4.98907">
        <ele>290.46</ele>
        <time>2019-02-19T12:38:22Z</time>
      </trkpt>
      <trkpt lat="49.61603" lon="4.98928">
        <ele>289.97</ele>
        <time>2019-02-19T12:38:38Z</time>
      </trkpt>
      <trkpt lat="49.61597" lon="4.98943">
        <ele>290.94</ele>
        <time>2019-02-19T12:38:54Z</time>
      </trkpt>
      <trkpt lat="49.61588" lon="4.98972">
        <ele>290.94</ele>
        <time>2019-02-19T12:39:10Z</time>
      </trkpt>
      <trkpt lat="49.61578" lon="4.98999">
        <ele>289.01</ele>
        <time>2019-02-19T12:39:24Z</time>
      </trkpt>
      <trkpt lat="49.61575" lon="4.99005">
        <ele>289.01</ele>
        <time>2019-02-19T12:39:27Z</time>
      </trkpt>
      <trkpt lat="49.61565" lon="4.99034">
        <ele>286.13</ele>
        <time>2019-02-19T12:39:44Z</time>
      </trkpt>
      <trkpt lat="49.61557" lon="4.99062">
        <ele>283.25</ele>
        <time>2019-02-19T12:39:59Z</time>
      </trkpt>
      <trkpt lat="49.61552" lon="4.99076">
        <ele>282.77</ele>
        <time>2019-02-19T12:40:15Z</time>
      </trkpt>
      <trkpt lat="49.61549" lon="4.99086">
        <ele>281.8</ele>
        <time>2019-02-19T12:40:29Z</time>
      </trkpt>
      <trkpt lat="49.61542" lon="4.99104">
        <ele>280.36</ele>
        <time>2019-02-19T12:40:47Z</time>
      </trkpt>
      <trkpt lat="49.61531" lon="4.9914">
        <ele>279.88</ele>
        <time>2019-02-19T12:41:05Z</time>
      </trkpt>
      <trkpt lat="49.61507" lon="4.99167">
        <ele>275.07</ele>
        <time>2019-02-19T12:41:25Z</time>
      </trkpt>
      <trkpt lat="49.61489" lon="4.99183">
        <ele>273.63</ele>
        <time>2019-02-19T12:41:39Z</time>
      </trkpt>
      <trkpt lat="49.61474" lon="4.99195">
        <ele>273.15</ele>
        <time>2019-02-19T12:41:59Z</time>
      </trkpt>
      <trkpt lat="49.61469" lon="4.992">
        <ele>272.67</ele>
        <time>2019-02-19T12:42:13Z</time>
      </trkpt>
      <trkpt lat="49.61466" lon="4.99202">
        <ele>272.19</ele>
        <time>2019-02-19T12:42:22Z</time>
      </trkpt>
      <trkpt lat="49.61463" lon="4.99212">
        <ele>269.79</ele>
        <time>2019-02-19T12:42:36Z</time>
      </trkpt>
      <trkpt lat="49.61462" lon="4.99222">
        <ele>270.27</ele>
        <time>2019-02-19T12:42:54Z</time>
      </trkpt>
      <trkpt lat="49.61461" lon="4.99233">
        <ele>272.19</ele>
        <time>2019-02-19T12:43:08Z</time>
      </trkpt>
      <trkpt lat="49.61461" lon="4.99242">
        <ele>274.11</ele>
        <time>2019-02-19T12:43:25Z</time>
      </trkpt>
      <trkpt lat="49.61462" lon="4.99262">
        <ele>274.11</ele>
        <time>2019-02-19T12:43:41Z</time>
      </trkpt>
      <trkpt lat="49.61463" lon="4.99274">
        <ele>274.59</ele>
        <time>2019-02-19T12:43:57Z</time>
      </trkpt>
      <trkpt lat="49.61462" lon="4.99292">
        <ele>271.23</ele>
        <time>2019-02-19T12:44:12Z</time>
      </trkpt>
      <trkpt lat="49.61454" lon="4.99331">
        <ele>268.35</ele>
        <time>2019-02-19T12:44:29Z</time>
      </trkpt>
      <trkpt lat="49.61449" lon="4.99355">
        <ele>264.5</ele>
        <time>2019-02-19T12:44:44Z</time>
      </trkpt>
      <trkpt lat="49.61436" lon="4.994">
        <ele>263.06</ele>
        <time>2019-02-19T12:45:02Z</time>
      </trkpt>
      <trkpt lat="49.61423" lon="4.99438">
        <ele>262.1</ele>
        <time>2019-02-19T12:45:18Z</time>
      </trkpt>
      <trkpt lat="49.61412" lon="4.99479">
        <ele>259.21</ele>
        <time>2019-02-19T12:45:35Z</time>
      </trkpt>
      <trkpt lat="49.61402" lon="4.99504">
        <ele>256.81</ele>
        <time>2019-02-19T12:45:50Z</time>
      </trkpt>
      <trkpt lat="49.61388" lon="4.99534">
        <ele>256.81</ele>
        <time>2019-02-19T12:46:07Z</time>
      </trkpt>
      <trkpt lat="49.61373" lon="4.99559">
        <ele>261.14</ele>
        <time>2019-02-19T12:46:24Z</time>
      </trkpt>
      <trkpt lat="49.61357" lon="4.99588">
        <ele>262.58</ele>
        <time>2019-02-19T12:46:41Z</time>
      </trkpt>
      <trkpt lat="49.61344" lon="4.99608">
        <ele>264.02</ele>
        <time>2019-02-19T12:46:59Z</time>
      </trkpt>
      <trkpt lat="49.6133" lon="4.99621">
        <ele>263.06</ele>
        <time>2019-02-19T12:47:18Z</time>
      </trkpt>
      <trkpt lat="49.61319" lon="4.99633">
        <ele>262.1</ele>
        <time>2019-02-19T12:47:33Z</time>
      </trkpt>
      <trkpt lat="49.61307" lon="4.99645">
        <ele>260.17</ele>
        <time>2019-02-19T12:47:50Z</time>
      </trkpt>
      <trkpt lat="49.61297" lon="4.99652">
        <ele>257.77</ele>
        <time>2019-02-19T12:48:04Z</time>
      </trkpt>
      <trkpt lat="49.61285" lon="4.99663">
        <ele>255.37</ele>
        <time>2019-02-19T12:48:21Z</time>
      </trkpt>
      <trkpt lat="49.61269" lon="4.99684">
        <ele>252.96</ele>
        <time>2019-02-19T12:48:37Z</time>
      </trkpt>
      <trkpt lat="49.61254" lon="4.99704">
        <ele>252.96</ele>
        <time>2019-02-19T12:48:51Z</time>
      </trkpt>
      <trkpt lat="49.6124" lon="4.99718">
        <ele>252</ele>
        <time>2019-02-19T12:49:07Z</time>
      </trkpt>
      <trkpt lat="49.61227" lon="4.99729">
        <ele>249.12</ele>
        <time>2019-02-19T12:49:23Z</time>
      </trkpt>
      <trkpt lat="49.61213" lon="4.99742">
        <ele>244.31</ele>
        <time>2019-02-19T12:49:39Z</time>
      </trkpt>
      <trkpt lat="49.61207" lon="4.99745">
        <ele>243.83</ele>
        <time>2019-02-19T12:49:55Z</time>
      </trkpt>
      <trkpt lat="49.61201" lon="4.99746">
        <ele>242.87</ele>
        <time>2019-02-19T12:50:11Z</time>
      </trkpt>
      <trkpt lat="49.61194" lon="4.99745">
        <ele>240.47</ele>
        <time>2019-02-19T12:50:28Z</time>
      </trkpt>
      <trkpt lat="49.61191" lon="4.99746">
        <ele>239.02</ele>
        <time>2019-02-19T12:50:48Z</time>
      </trkpt>
      <trkpt lat="49.61174" lon="4.99763">
        <ele>238.06</ele>
        <time>2019-02-19T12:51:02Z</time>
      </trkpt>
      <trkpt lat="49.61155" lon="4.99783">
        <ele>238.54</ele>
        <time>2019-02-19T12:51:16Z</time>
      </trkpt>
      <trkpt lat="49.61146" lon="4.99792">
        <ele>239.02</ele>
        <time>2019-02-19T12:51:23Z</time>
      </trkpt>
      <trkpt lat="49.61133" lon="4.99819">
        <ele>237.58</ele>
        <time>2019-02-19T12:51:42Z</time>
      </trkpt>
      <trkpt lat="49.61138" lon="4.99839">
        <ele>235.18</ele>
        <time>2019-02-19T12:51:58Z</time>
      </trkpt>
      <trkpt lat="49.61139" lon="4.99841">
        <ele>235.18</ele>
        <time>2019-02-19T12:52:00Z</time>
      </trkpt>
      <trkpt lat="49.61152" lon="4.99856">
        <ele>235.66</ele>
        <time>2019-02-19T12:52:17Z</time>
      </trkpt>
      <trkpt lat="49.61163" lon="4.99872">
        <ele>233.74</ele>
        <time>2019-02-19T12:52:32Z</time>
      </trkpt>
      <trkpt lat="49.61176" lon="4.99888">
        <ele>232.78</ele>
        <time>2019-02-19T12:52:52Z</time>
      </trkpt>
      <trkpt lat="49.61176" lon="4.99893">
        <ele>238.06</ele>
        <time>2019-02-19T12:53:10Z</time>
      </trkpt>
      <trkpt lat="49.61173" lon="4.99902">
        <ele>240.47</ele>
        <time>2019-02-19T12:53:28Z</time>
      </trkpt>
      <trkpt lat="49.61171" lon="4.99909">
        <ele>240.95</ele>
        <time>2019-02-19T12:53:45Z</time>
      </trkpt>
      <trkpt lat="49.61164" lon="4.99931">
        <ele>237.1</ele>
        <time>2019-02-19T12:53:59Z</time>
      </trkpt>
      <trkpt lat="49.61162" lon="4.99946">
        <ele>234.7</ele>
        <time>2019-02-19T12:54:12Z</time>
      </trkpt>
      <trkpt lat="49.6116" lon="4.99964">
        <ele>232.78</ele>
        <time>2019-02-19T12:54:28Z</time>
      </trkpt>
      <trkpt lat="49.61157" lon="4.99987">
        <ele>230.37</ele>
        <time>2019-02-19T12:54:43Z</time>
      </trkpt>
      <trkpt lat="49.61153" lon="5">
        <ele>228.93</ele>
        <time>2019-02-19T12:54:55Z</time>
      </trkpt>
      <trkpt lat="49.61146" lon="5.00024">
        <ele>226.53</ele>
        <time>2019-02-19T12:55:11Z</time>
      </trkpt>
      <trkpt lat="49.61142" lon="5.00049">
        <ele>222.2</ele>
        <time>2019-02-19T12:55:25Z</time>
      </trkpt>
      <trkpt lat="49.6114" lon="5.00078">
        <ele>217.88</ele>
        <time>2019-02-19T12:55:39Z</time>
      </trkpt>
      <trkpt lat="49.61135" lon="5.001">
        <ele>213.07</ele>
        <time>2019-02-19T12:55:54Z</time>
      </trkpt>
      <trkpt lat="49.61128" lon="5.00121">
        <ele>208.26</ele>
        <time>2019-02-19T12:56:09Z</time>
      </trkpt>
      <trkpt lat="49.61124" lon="5.00146">
        <ele>202.01</ele>
        <time>2019-02-19T12:56:22Z</time>
      </trkpt>
      <trkpt lat="49.61119" lon="5.00166">
        <ele>194.32</ele>
        <time>2019-02-19T12:56:36Z</time>
      </trkpt>
      <trkpt lat="49.61115" lon="5.00183">
        <ele>190.48</ele>
        <time>2019-02-19T12:56:52Z</time>
      </trkpt>
      <trkpt lat="49.61112" lon="5.00203">
        <ele>184.71</ele>
        <time>2019-02-19T12:57:06Z</time>
      </trkpt>
      <trkpt lat="49.61102" lon="5.00235">
        <ele>181.35</ele>
        <time>2019-02-19T12:57:21Z</time>
      </trkpt>
      <trkpt lat="49.61102" lon="5.00247">
        <ele>181.35</ele>
        <time>2019-02-19T12:57:26Z</time>
      </trkpt>
      <trkpt lat="49.61098" lon="5.00256">
        <ele>180.38</ele>
        <time>2019-02-19T12:57:33Z</time>
      </trkpt>
      <trkpt lat="49.61088" lon="5.00285">
        <ele>179.42</ele>
        <time>2019-02-19T12:57:50Z</time>
      </trkpt>
      <trkpt lat="49.61084" lon="5.00302">
        <ele>179.42</ele>
        <time>2019-02-19T12:57:59Z</time>
      </trkpt>
      <trkpt lat="49.61079" lon="5.00329">
        <ele>179.9</ele>
        <time>2019-02-19T12:58:15Z</time>
      </trkpt>
      <trkpt lat="49.61075" lon="5.00351">
        <ele>181.83</ele>
        <time>2019-02-19T12:58:30Z</time>
      </trkpt>
      <trkpt lat="49.61063" lon="5.00372">
        <ele>182.79</ele>
        <time>2019-02-19T12:58:47Z</time>
      </trkpt>
      <trkpt lat="49.61056" lon="5.00382">
        <ele>182.79</ele>
        <time>2019-02-19T12:59:02Z</time>
      </trkpt>
      <trkpt lat="49.61046" lon="5.00395">
        <ele>185.19</ele>
        <time>2019-02-19T12:59:20Z</time>
      </trkpt>
      <trkpt lat="49.61024" lon="5.00421">
        <ele>185.19</ele>
        <time>2019-02-19T12:59:38Z</time>
      </trkpt>
      <trkpt lat="49.6101" lon="5.0044">
        <ele>186.15</ele>
        <time>2019-02-19T12:59:52Z</time>
      </trkpt>
      <trkpt lat="49.60998" lon="5.00462">
        <ele>186.63</ele>
        <time>2019-02-19T13:00:06Z</time>
      </trkpt>
      <trkpt lat="49.60991" lon="5.00485">
        <ele>187.59</ele>
        <time>2019-02-19T13:00:19Z</time>
      </trkpt>
      <trkpt lat="49.6099" lon="5.00501">
        <ele>189.04</ele>
        <time>2019-02-19T13:00:34Z</time>
      </trkpt>
      <trkpt lat="49.60989" lon="5.00524">
        <ele>190</ele>
        <time>2019-02-19T13:00:48Z</time>
      </trkpt>
      <trkpt lat="49.60987" lon="5.00538">
        <ele>191.92</ele>
        <time>2019-02-19T13:01:05Z</time>
      </trkpt>
      <trkpt lat="49.60987" lon="5.00554">
        <ele>195.28</ele>
        <time>2019-02-19T13:01:22Z</time>
      </trkpt>
      <trkpt lat="49.60988" lon="5.00565">
        <ele>198.65</ele>
        <time>2019-02-19T13:01:37Z</time>
      </trkpt>
      <trkpt lat="49.60987" lon="5.00574">
        <ele>199.61</ele>
        <time>2019-02-19T13:01:51Z</time>
      </trkpt>
      <trkpt lat="49.6099" lon="5.00588">
        <ele>199.13</ele>
        <time>2019-02-19T13:02:03Z</time>
      </trkpt>
      <trkpt lat="49.60991" lon="5.0061">
        <ele>198.65</ele>
        <time>2019-02-19T13:02:17Z</time>
      </trkpt>
      <trkpt lat="49.6099" lon="5.00634">
        <ele>196.73</ele>
        <time>2019-02-19T13:02:34Z</time>
      </trkpt>
      <trkpt lat="49.60989" lon="5.00649">
        <ele>194.32</ele>
        <time>2019-02-19T13:02:47Z</time>
      </trkpt>
      <trkpt lat="49.60986" lon="5.00674">
        <ele>187.59</ele>
        <time>2019-02-19T13:03:04Z</time>
      </trkpt>
      <trkpt lat="49.60986" lon="5.00692">
        <ele>187.11</ele>
        <time>2019-02-19T13:03:21Z</time>
      </trkpt>
      <trkpt lat="49.60985" lon="5.00709">
        <ele>185.67</ele>
        <time>2019-02-19T13:03:36Z</time>
      </trkpt>
      <trkpt lat="49.60981" lon="5.00729">
        <ele>183.27</ele>
        <time>2019-02-19T13:03:53Z</time>
      </trkpt>
      <trkpt lat="49.60977" lon="5.00745">
        <ele>181.83</ele>
        <time>2019-02-19T13:04:10Z</time>
      </trkpt>
      <trkpt lat="49.60972" lon="5.0076">
        <ele>181.83</ele>
        <time>2019-02-19T13:04:26Z</time>
      </trkpt>
      <trkpt lat="49.60969" lon="5.00783">
        <ele>178.94</ele>
        <time>2019-02-19T13:04:42Z</time>
      </trkpt>
      <trkpt lat="49.60965" lon="5.008">
        <ele>177.02</ele>
        <time>2019-02-19T13:04:58Z</time>
      </trkpt>
      <trkpt lat="49.60957" lon="5.00819">
        <ele>175.1</ele>
        <time>2019-02-19T13:05:15Z</time>
      </trkpt>
      <trkpt lat="49.60952" lon="5.00827">
        <ele>173.66</ele>
        <time>2019-02-19T13:05:29Z</time>
      </trkpt>
      <trkpt lat="49.60952" lon="5.00845">
        <ele>173.17</ele>
        <time>2019-02-19T13:05:42Z</time>
      </trkpt>
      <trkpt lat="49.60951" lon="5.00868">
        <ele>169.33</ele>
        <time>2019-02-19T13:05:54Z</time>
      </trkpt>
      <trkpt lat="49.60951" lon="5.00898">
        <ele>167.89</ele>
        <time>2019-02-19T13:06:07Z</time>
      </trkpt>
      <trkpt lat="49.60951" lon="5.00924">
        <ele>165.96</ele>
        <time>2019-02-19T13:06:21Z</time>
      </trkpt>
      <trkpt lat="49.60946" lon="5.00952">
        <ele>165</ele>
        <time>2019-02-19T13:06:34Z</time>
      </trkpt>
      <trkpt lat="49.60946" lon="5.00975">
        <ele>165.48</ele>
        <time>2019-02-19T13:06:49Z</time>
      </trkpt>
      <trkpt lat="49.6095" lon="5.00994">
        <ele>163.08</ele>
        <time>2019-02-19T13:07:04Z</time>
      </trkpt>
      <trkpt lat="49.60955" lon="5.01022">
        <ele>161.64</ele>
        <time>2019-02-19T13:07:18Z</time>
      </trkpt>
      <trkpt lat="49.60961" lon="5.01045">
        <ele>162.12</ele>
        <time>2019-02-19T13:07:30Z</time>
      </trkpt>
      <trkpt lat="49.60963" lon="5.0107">
        <ele>163.08</ele>
        <time>2019-02-19T13:07:46Z</time>
      </trkpt>
      <trkpt lat="49.60968" lon="5.01093">
        <ele>163.08</ele>
        <time>2019-02-19T13:07:58Z</time>
      </trkpt>
      <trkpt lat="49.60971" lon="5.01131">
        <ele>160.68</ele>
        <time>2019-02-19T13:08:12Z</time>
      </trkpt>
      <trkpt lat="49.60977" lon="5.01161">
        <ele>159.72</ele>
        <time>2019-02-19T13:08:24Z</time>
      </trkpt>
      <trkpt lat="49.60981" lon="5.0117">
        <ele>160.68</ele>
        <time>2019-02-19T13:08:29Z</time>
      </trkpt>
      <trkpt lat="49.60992" lon="5.01192">
        <ele>161.64</ele>
        <time>2019-02-19T13:08:45Z</time>
      </trkpt>
      <trkpt lat="49.60997" lon="5.01219">
        <ele>162.6</ele>
        <time>2019-02-19T13:08:58Z</time>
      </trkpt>
      <trkpt lat="49.61003" lon="5.01235">
        <ele>163.08</ele>
        <time>2019-02-19T13:09:12Z</time>
      </trkpt>
      <trkpt lat="49.6101" lon="5.01254">
        <ele>162.12</ele>
        <time>2019-02-19T13:09:28Z</time>
      </trkpt>
      <trkpt lat="49.61011" lon="5.01268">
        <ele>162.6</ele>
        <time>2019-02-19T13:09:43Z</time>
      </trkpt>
      <trkpt lat="49.61012" lon="5.01281">
        <ele>163.08</ele>
        <time>2019-02-19T13:10:00Z</time>
      </trkpt>
      <trkpt lat="49.61012" lon="5.013">
        <ele>164.52</ele>
        <time>2019-02-19T13:10:16Z</time>
      </trkpt>
      <trkpt lat="49.61017" lon="5.0132">
        <ele>168.37</ele>
        <time>2019-02-19T13:10:32Z</time>
      </trkpt>
      <trkpt lat="49.61023" lon="5.01365">
        <ele>171.73</ele>
        <time>2019-02-19T13:10:49Z</time>
      </trkpt>
      <trkpt lat="49.61027" lon="5.01388">
        <ele>170.77</ele>
        <time>2019-02-19T13:11:03Z</time>
      </trkpt>
      <trkpt lat="49.61027" lon="5.01416">
        <ele>165.48</ele>
        <time>2019-02-19T13:11:16Z</time>
      </trkpt>
      <trkpt lat="49.61027" lon="5.0142">
        <ele>165</ele>
        <time>2019-02-19T13:11:19Z</time>
      </trkpt>
      <trkpt lat="49.61027" lon="5.01446">
        <ele>165.48</ele>
        <time>2019-02-19T13:11:33Z</time>
      </trkpt>
      <trkpt lat="49.61029" lon="5.01479">
        <ele>166.45</ele>
        <time>2019-02-19T13:11:47Z</time>
      </trkpt>
      <trkpt lat="49.61029" lon="5.01493">
        <ele>166.93</ele>
        <time>2019-02-19T13:11:56Z</time>
      </trkpt>
      <trkpt lat="49.61026" lon="5.01506">
        <ele>166.45</ele>
        <time>2019-02-19T13:12:01Z</time>
      </trkpt>
      <trkpt lat="49.61021" lon="5.01539">
        <ele>163.08</ele>
        <time>2019-02-19T13:12:16Z</time>
      </trkpt>
      <trkpt lat="49.61018" lon="5.01551">
        <ele>152.03</ele>
        <time>2019-02-19T13:12:30Z</time>
      </trkpt>
      <trkpt lat="49.61022" lon="5.0157">
        <ele>154.43</ele>
        <time>2019-02-19T13:12:44Z</time>
      </trkpt>
      <trkpt lat="49.61026" lon="5.01592">
        <ele>159.72</ele>
        <time>2019-02-19T13:12:59Z</time>
      </trkpt>
      <trkpt lat="49.61029" lon="5.01613">
        <ele>159.72</ele>
        <time>2019-02-19T13:13:10Z</time>
      </trkpt>
      <trkpt lat="49.61029" lon="5.01621">
        <ele>158.27</ele>
        <time>2019-02-19T13:13:13Z</time>
      </trkpt>
      <trkpt lat="49.61036" lon="5.01662">
        <ele>159.72</ele>
        <time>2019-02-19T13:13:30Z</time>
      </trkpt>
      <trkpt lat="49.61038" lon="5.01669">
        <ele>160.2</ele>
        <time>2019-02-19T13:13:34Z</time>
      </trkpt>
      <trkpt lat="49.61043" lon="5.017">
        <ele>159.24</ele>
        <time>2019-02-19T13:13:51Z</time>
      </trkpt>
      <trkpt lat="49.61046" lon="5.01725">
        <ele>160.68</ele>
        <time>2019-02-19T13:14:06Z</time>
      </trkpt>
      <trkpt lat="49.61051" lon="5.01749">
        <ele>159.24</ele>
        <time>2019-02-19T13:14:20Z</time>
      </trkpt>
      <trkpt lat="49.61056" lon="5.0177">
        <ele>158.27</ele>
        <time>2019-02-19T13:14:34Z</time>
      </trkpt>
      <trkpt lat="49.6106" lon="5.01793">
        <ele>162.12</ele>
        <time>2019-02-19T13:14:48Z</time>
      </trkpt>
      <trkpt lat="49.61062" lon="5.01819">
        <ele>165.48</ele>
        <time>2019-02-19T13:15:02Z</time>
      </trkpt>
      <trkpt lat="49.61061" lon="5.01849">
        <ele>169.81</ele>
        <time>2019-02-19T13:15:17Z</time>
      </trkpt>
      <trkpt lat="49.6106" lon="5.01878">
        <ele>170.77</ele>
        <time>2019-02-19T13:15:33Z</time>
      </trkpt>
      <trkpt lat="49.6106" lon="5.01888">
        <ele>168.37</ele>
        <time>2019-02-19T13:15:40Z</time>
      </trkpt>
      <trkpt lat="49.61062" lon="5.01911">
        <ele>171.25</ele>
        <time>2019-02-19T13:15:56Z</time>
      </trkpt>
      <trkpt lat="49.6107" lon="5.01935">
        <ele>175.1</ele>
        <time>2019-02-19T13:16:12Z</time>
      </trkpt>
      <trkpt lat="49.61075" lon="5.01963">
        <ele>177.02</ele>
        <time>2019-02-19T13:16:29Z</time>
      </trkpt>
      <trkpt lat="49.61081" lon="5.01982">
        <ele>178.46</ele>
        <time>2019-02-19T13:16:44Z</time>
      </trkpt>
      <trkpt lat="49.61085" lon="5.02006">
        <ele>182.31</ele>
        <time>2019-02-19T13:17:00Z</time>
      </trkpt>
      <trkpt lat="49.61091" lon="5.02029">
        <ele>181.83</ele>
        <time>2019-02-19T13:17:15Z</time>
      </trkpt>
      <trkpt lat="49.61092" lon="5.02034">
        <ele>181.83</ele>
        <time>2019-02-19T13:17:18Z</time>
      </trkpt>
      <trkpt lat="49.61094" lon="5.02058">
        <ele>184.23</ele>
        <time>2019-02-19T13:17:33Z</time>
      </trkpt>
      <trkpt lat="49.61098" lon="5.02068">
        <ele>184.71</ele>
        <time>2019-02-19T13:17:42Z</time>
      </trkpt>
      <trkpt lat="49.61103" lon="5.02089">
        <ele>185.67</ele>
        <time>2019-02-19T13:17:54Z</time>
      </trkpt>
      <trkpt lat="49.61107" lon="5.02113">
        <ele>186.15</ele>
        <time>2019-02-19T13:18:09Z</time>
      </trkpt>
      <trkpt lat="49.6111" lon="5.02132">
        <ele>187.59</ele>
        <time>2019-02-19T13:18:23Z</time>
      </trkpt>
      <trkpt lat="49.61114" lon="5.02154">
        <ele>188.08</ele>
        <time>2019-02-19T13:18:38Z</time>
      </trkpt>
      <trkpt lat="49.61117" lon="5.02181">
        <ele>193.36</ele>
        <time>2019-02-19T13:18:54Z</time>
      </trkpt>
      <trkpt lat="49.61121" lon="5.0221">
        <ele>195.77</ele>
        <time>2019-02-19T13:19:11Z</time>
      </trkpt>
      <trkpt lat="49.61124" lon="5.02228">
        <ele>196.73</ele>
        <time>2019-02-19T13:19:24Z</time>
      </trkpt>
      <trkpt lat="49.61127" lon="5.02234">
        <ele>197.69</ele>
        <time>2019-02-19T13:19:28Z</time>
      </trkpt>
      <trkpt lat="49.61131" lon="5.02254">
        <ele>201.05</ele>
        <time>2019-02-19T13:19:42Z</time>
      </trkpt>
      <trkpt lat="49.61131" lon="5.02268">
        <ele>202.49</ele>
        <time>2019-02-19T13:19:51Z</time>
      </trkpt>
      <trkpt lat="49.61135" lon="5.02282">
        <ele>202.49</ele>
        <time>2019-02-19T13:20:00Z</time>
      </trkpt>
      <trkpt lat="49.61137" lon="5.02307">
        <ele>200.09</ele>
        <time>2019-02-19T13:20:16Z</time>
      </trkpt>
      <trkpt lat="49.61135" lon="5.02331">
        <ele>198.17</ele>
        <time>2019-02-19T13:20:31Z</time>
      </trkpt>
      <trkpt lat="49.61127" lon="5.02359">
        <ele>198.17</ele>
        <time>2019-02-19T13:20:49Z</time>
      </trkpt>
      <trkpt lat="49.61126" lon="5.02364">
        <ele>198.17</ele>
        <time>2019-02-19T13:20:53Z</time>
      </trkpt>
      <trkpt lat="49.61117" lon="5.02383">
        <ele>198.17</ele>
        <time>2019-02-19T13:21:07Z</time>
      </trkpt>
      <trkpt lat="49.61111" lon="5.02406">
        <ele>196.73</ele>
        <time>2019-02-19T13:21:23Z</time>
      </trkpt>
      <trkpt lat="49.61106" lon="5.02429">
        <ele>194.8</ele>
        <time>2019-02-19T13:21:39Z</time>
      </trkpt>
      <trkpt lat="49.61105" lon="5.02449">
        <ele>194.8</ele>
        <time>2019-02-19T13:21:55Z</time>
      </trkpt>
      <trkpt lat="49.61105" lon="5.02452">
        <ele>194.32</ele>
        <time>2019-02-19T13:21:57Z</time>
      </trkpt>
      <trkpt lat="49.61111" lon="5.02474">
        <ele>191.44</ele>
        <time>2019-02-19T13:22:15Z</time>
      </trkpt>
      <trkpt lat="49.61116" lon="5.02492">
        <ele>187.11</ele>
        <time>2019-02-19T13:22:32Z</time>
      </trkpt>
      <trkpt lat="49.61118" lon="5.02505">
        <ele>183.27</ele>
        <time>2019-02-19T13:22:46Z</time>
      </trkpt>
      <trkpt lat="49.6112" lon="5.02523">
        <ele>179.42</ele>
        <time>2019-02-19T13:23:00Z</time>
      </trkpt>
      <trkpt lat="49.61122" lon="5.02542">
        <ele>178.46</ele>
        <time>2019-02-19T13:23:14Z</time>
      </trkpt>
      <trkpt lat="49.61127" lon="5.02552">
        <ele>178.46</ele>
        <time>2019-02-19T13:23:28Z</time>
      </trkpt>
      <trkpt lat="49.61131" lon="5.02551">
        <ele>178.94</ele>
        <time>2019-02-19T13:23:43Z</time>
      </trkpt>
      <trkpt lat="49.61149" lon="5.02546">
        <ele>179.9</ele>
        <time>2019-02-19T13:24:00Z</time>
      </trkpt>
      <trkpt lat="49.61169" lon="5.02556">
        <ele>180.87</ele>
        <time>2019-02-19T13:24:18Z</time>
      </trkpt>
      <trkpt lat="49.61189" lon="5.02568">
        <ele>179.9</ele>
        <time>2019-02-19T13:24:37Z</time>
      </trkpt>
      <trkpt lat="49.61204" lon="5.02588">
        <ele>181.35</ele>
        <time>2019-02-19T13:24:55Z</time>
      </trkpt>
      <trkpt lat="49.6122" lon="5.02608">
        <ele>182.31</ele>
        <time>2019-02-19T13:25:14Z</time>
      </trkpt>
      <trkpt lat="49.6124" lon="5.0263">
        <ele>179.9</ele>
        <time>2019-02-19T13:25:37Z</time>
      </trkpt>
      <trkpt lat="49.6125" lon="5.02644">
        <ele>178.46</ele>
        <time>2019-02-19T13:25:54Z</time>
      </trkpt>
      <trkpt lat="49.61252" lon="5.02646">
        <ele>177.98</ele>
        <time>2019-02-19T13:26:10Z</time>
      </trkpt>
      <trkpt lat="49.61262" lon="5.02664">
        <ele>177.98</ele>
        <time>2019-02-19T13:26:27Z</time>
      </trkpt>
      <trkpt lat="49.61273" lon="5.02682">
        <ele>176.54</ele>
        <time>2019-02-19T13:26:46Z</time>
      </trkpt>
      <trkpt lat="49.61276" lon="5.02687">
        <ele>176.06</ele>
        <time>2019-02-19T13:27:03Z</time>
      </trkpt>
      <trkpt lat="49.61287" lon="5.02713">
        <ele>171.73</ele>
        <time>2019-02-19T13:27:23Z</time>
      </trkpt>
      <trkpt lat="49.61293" lon="5.02731">
        <ele>170.29</ele>
        <time>2019-02-19T13:27:38Z</time>
      </trkpt>
      <trkpt lat="49.61303" lon="5.02759">
        <ele>170.77</ele>
        <time>2019-02-19T13:27:57Z</time>
      </trkpt>
      <trkpt lat="49.61312" lon="5.02795">
        <ele>166.45</ele>
        <time>2019-02-19T13:28:17Z</time>
      </trkpt>
      <trkpt lat="49.6132" lon="5.02828">
        <ele>164.52</ele>
        <time>2019-02-19T13:28:37Z</time>
      </trkpt>
      <trkpt lat="49.61327" lon="5.02853">
        <ele>163.56</ele>
        <time>2019-02-19T13:28:52Z</time>
      </trkpt>
      <trkpt lat="49.61336" lon="5.02887">
        <ele>164.04</ele>
        <time>2019-02-19T13:29:12Z</time>
      </trkpt>
      <trkpt lat="49.61343" lon="5.02912">
        <ele>162.6</ele>
        <time>2019-02-19T13:29:28Z</time>
      </trkpt>
      <trkpt lat="49.61352" lon="5.02949">
        <ele>161.16</ele>
        <time>2019-02-19T13:29:50Z</time>
      </trkpt>
      <trkpt lat="49.61362" lon="5.02979">
        <ele>159.72</ele>
        <time>2019-02-19T13:30:09Z</time>
      </trkpt>
      <trkpt lat="49.6137" lon="5.03002">
        <ele>158.75</ele>
        <time>2019-02-19T13:30:25Z</time>
      </trkpt>
      <trkpt lat="49.61388" lon="5.03035">
        <ele>158.75</ele>
        <time>2019-02-19T13:30:48Z</time>
      </trkpt>
      <trkpt lat="49.61402" lon="5.03058">
        <ele>159.24</ele>
        <time>2019-02-19T13:31:07Z</time>
      </trkpt>
      <trkpt lat="49.6142" lon="5.03086">
        <ele>158.75</ele>
        <time>2019-02-19T13:31:30Z</time>
      </trkpt>
      <trkpt lat="49.61436" lon="5.03107">
        <ele>158.27</ele>
        <time>2019-02-19T13:31:50Z</time>
      </trkpt>
      <trkpt lat="49.61454" lon="5.03134">
        <ele>159.72</ele>
        <time>2019-02-19T13:32:11Z</time>
      </trkpt>
      <trkpt lat="49.61472" lon="5.03161">
        <ele>158.75</ele>
        <time>2019-02-19T13:32:34Z</time>
      </trkpt>
      <trkpt lat="49.61489" lon="5.0319">
        <ele>158.27</ele>
        <time>2019-02-19T13:32:57Z</time>
      </trkpt>
      <trkpt lat="49.61503" lon="5.03216">
        <ele>157.79</ele>
        <time>2019-02-19T13:33:17Z</time>
      </trkpt>
      <trkpt lat="49.61516" lon="5.03239">
        <ele>156.83</ele>
        <time>2019-02-19T13:33:35Z</time>
      </trkpt>
      <trkpt lat="49.61533" lon="5.03265">
        <ele>156.83</ele>
        <time>2019-02-19T13:33:57Z</time>
      </trkpt>
      <trkpt lat="49.6155" lon="5.03291">
        <ele>156.83</ele>
        <time>2019-02-19T13:34:19Z</time>
      </trkpt>
      <trkpt lat="49.61563" lon="5.03275">
        <ele>156.35</ele>
        <time>2019-02-19T13:34:34Z</time>
      </trkpt>
      <trkpt lat="49.61578" lon="5.03253">
        <ele>155.39</ele>
        <time>2019-02-19T13:34:52Z</time>
      </trkpt>
      <trkpt lat="49.61593" lon="5.03229">
        <ele>152.99</ele>
        <time>2019-02-19T13:35:12Z</time>
      </trkpt>
      <trkpt lat="49.61608" lon="5.03209">
        <ele>152.51</ele>
        <time>2019-02-19T13:35:30Z</time>
      </trkpt>
      <trkpt lat="49.61623" lon="5.03189">
        <ele>152.51</ele>
        <time>2019-02-19T13:35:48Z</time>
      </trkpt>
      <trkpt lat="49.61641" lon="5.03165">
        <ele>152.99</ele>
        <time>2019-02-19T13:36:09Z</time>
      </trkpt>
      <trkpt lat="49.61659" lon="5.03144">
        <ele>153.95</ele>
        <time>2019-02-19T13:36:28Z</time>
      </trkpt>
      <trkpt lat="49.61681" lon="5.03126">
        <ele>153.47</ele>
        <time>2019-02-19T13:36:50Z</time>
      </trkpt>
      <trkpt lat="49.61702" lon="5.0311">
        <ele>152.51</ele>
        <time>2019-02-19T13:37:11Z</time>
      </trkpt>
      <trkpt lat="49.61729" lon="5.03091">
        <ele>152.03</ele>
        <time>2019-02-19T13:37:37Z</time>
      </trkpt>
      <trkpt lat="49.6175" lon="5.03077">
        <ele>150.58</ele>
        <time>2019-02-19T13:37:58Z</time>
      </trkpt>
      <trkpt lat="49.61771" lon="5.03066">
        <ele>149.62</ele>
        <time>2019-02-19T13:38:18Z</time>
      </trkpt>
      <trkpt lat="49.6179" lon="5.03058">
        <ele>151.06</ele>
        <time>2019-02-19T13:38:36Z</time>
      </trkpt>
      <trkpt lat="49.6181" lon="5.03051">
        <ele>152.03</ele>
        <time>2019-02-19T13:38:55Z</time>
      </trkpt>
      <trkpt lat="49.6183" lon="5.03042">
        <ele>152.99</ele>
        <time>2019-02-19T13:39:14Z</time>
      </trkpt>
      <trkpt lat="49.6185" lon="5.03037">
        <ele>153.95</ele>
        <time>2019-02-19T13:39:32Z</time>
      </trkpt>
      <trkpt lat="49.61874" lon="5.0303">
        <ele>153.95</ele>
        <time>2019-02-19T13:39:53Z</time>
      </trkpt>
      <trkpt lat="49.61894" lon="5.03023">
        <ele>152.99</ele>
        <time>2019-02-19T13:40:11Z</time>
      </trkpt>
      <trkpt lat="49.61912" lon="5.02999">
        <ele>153.47</ele>
        <time>2019-02-19T13:40:32Z</time>
      </trkpt>
      <trkpt lat="49.61933" lon="5.02981">
        <ele>153.95</ele>
        <time>2019-02-19T13:40:52Z</time>
      </trkpt>
      <trkpt lat="49.61959" lon="5.0297">
        <ele>152.99</ele>
        <time>2019-02-19T13:41:14Z</time>
      </trkpt>
      <trkpt lat="49.61987" lon="5.02968">
        <ele>152.51</ele>
        <time>2019-02-19T13:41:37Z</time>
      </trkpt>
      <trkpt lat="49.62009" lon="5.02969">
        <ele>152.03</ele>
        <time>2019-02-19T13:41:58Z</time>
      </trkpt>
      <trkpt lat="49.62039" lon="5.02971">
        <ele>150.58</ele>
        <time>2019-02-19T13:42:24Z</time>
      </trkpt>
      <trkpt lat="49.62068" lon="5.02972">
        <ele>150.58</ele>
        <time>2019-02-19T13:42:48Z</time>
      </trkpt>
      <trkpt lat="49.62098" lon="5.02971">
        <ele>150.58</ele>
        <time>2019-02-19T13:43:11Z</time>
      </trkpt>
      <trkpt lat="49.62121" lon="5.02968">
        <ele>152.03</ele>
        <time>2019-02-19T13:43:30Z</time>
      </trkpt>
      <trkpt lat="49.62148" lon="5.02962">
        <ele>154.91</ele>
        <time>2019-02-19T13:43:53Z</time>
      </trkpt>
      <trkpt lat="49.6217" lon="5.02957">
        <ele>156.83</ele>
        <time>2019-02-19T13:44:12Z</time>
      </trkpt>
      <trkpt lat="49.62193" lon="5.02951">
        <ele>156.83</ele>
        <time>2019-02-19T13:44:32Z</time>
      </trkpt>
      <trkpt lat="49.62197" lon="5.02948">
        <ele>156.83</ele>
        <time>2019-02-19T13:44:37Z</time>
      </trkpt>
      <trkpt lat="49.62223" lon="5.0294">
        <ele>154.91</ele>
        <time>2019-02-19T13:44:59Z</time>
      </trkpt>
      <trkpt lat="49.62248" lon="5.02934">
        <ele>153.95</ele>
        <time>2019-02-19T13:45:20Z</time>
      </trkpt>
      <trkpt lat="49.62268" lon="5.02932">
        <ele>152.99</ele>
        <time>2019-02-19T13:45:38Z</time>
      </trkpt>
      <trkpt lat="49.62284" lon="5.02931">
        <ele>152.99</ele>
        <time>2019-02-19T13:45:53Z</time>
      </trkpt>
      <trkpt lat="49.62306" lon="5.02936">
        <ele>154.91</ele>
        <time>2019-02-19T13:46:13Z</time>
      </trkpt>
      <trkpt lat="49.62323" lon="5.0294">
        <ele>156.35</ele>
        <time>2019-02-19T13:46:30Z</time>
      </trkpt>
      <trkpt lat="49.62332" lon="5.02941">
        <ele>155.87</ele>
        <time>2019-02-19T13:46:38Z</time>
      </trkpt>
      <trkpt lat="49.6235" lon="5.02936">
        <ele>156.35</ele>
        <time>2019-02-19T13:46:56Z</time>
      </trkpt>
      <trkpt lat="49.62367" lon="5.02927">
        <ele>156.35</ele>
        <time>2019-02-19T13:47:13Z</time>
      </trkpt>
      <trkpt lat="49.62387" lon="5.02915">
        <ele>157.79</ele>
        <time>2019-02-19T13:47:32Z</time>
      </trkpt>
      <trkpt lat="49.62404" lon="5.029">
        <ele>157.79</ele>
        <time>2019-02-19T13:47:49Z</time>
      </trkpt>
      <trkpt lat="49.62406" lon="5.02898">
        <ele>157.31</ele>
        <time>2019-02-19T13:47:51Z</time>
      </trkpt>
      <trkpt lat="49.62408" lon="5.02866">
        <ele>154.91</ele>
        <time>2019-02-19T13:48:09Z</time>
      </trkpt>
      <trkpt lat="49.62408" lon="5.02831">
        <ele>154.43</ele>
        <time>2019-02-19T13:48:29Z</time>
      </trkpt>
      <trkpt lat="49.62411" lon="5.02787">
        <ele>158.75</ele>
        <time>2019-02-19T13:48:53Z</time>
      </trkpt>
      <trkpt lat="49.6241" lon="5.02747">
        <ele>159.72</ele>
        <time>2019-02-19T13:49:16Z</time>
      </trkpt>
      <trkpt lat="49.62407" lon="5.02717">
        <ele>157.31</ele>
        <time>2019-02-19T13:49:34Z</time>
      </trkpt>
      <trkpt lat="49.62405" lon="5.02683">
        <ele>156.83</ele>
        <time>2019-02-19T13:49:54Z</time>
      </trkpt>
      <trkpt lat="49.62404" lon="5.02677">
        <ele>156.35</ele>
        <time>2019-02-19T13:49:58Z</time>
      </trkpt>
      <trkpt lat="49.62402" lon="5.02644">
        <ele>155.87</ele>
        <time>2019-02-19T13:50:17Z</time>
      </trkpt>
      <trkpt lat="49.624" lon="5.02609">
        <ele>155.39</ele>
        <time>2019-02-19T13:50:38Z</time>
      </trkpt>
      <trkpt lat="49.62398" lon="5.02574">
        <ele>156.35</ele>
        <time>2019-02-19T13:50:58Z</time>
      </trkpt>
      <trkpt lat="49.62395" lon="5.02536">
        <ele>157.79</ele>
        <time>2019-02-19T13:51:20Z</time>
      </trkpt>
      <trkpt lat="49.62391" lon="5.02499">
        <ele>158.27</ele>
        <time>2019-02-19T13:51:42Z</time>
      </trkpt>
      <trkpt lat="49.62389" lon="5.02466">
        <ele>161.16</ele>
        <time>2019-02-19T13:52:02Z</time>
      </trkpt>
      <trkpt lat="49.62386" lon="5.02431">
        <ele>161.64</ele>
        <time>2019-02-19T13:52:23Z</time>
      </trkpt>
      <trkpt lat="49.62385" lon="5.02388">
        <ele>162.6</ele>
        <time>2019-02-19T13:52:48Z</time>
      </trkpt>
      <trkpt lat="49.62383" lon="5.02363">
        <ele>162.6</ele>
        <time>2019-02-19T13:53:03Z</time>
      </trkpt>
      <trkpt lat="49.62385" lon="5.02328">
        <ele>162.12</ele>
        <time>2019-02-19T13:53:24Z</time>
      </trkpt>
      <trkpt lat="49.62387" lon="5.02294">
        <ele>162.6</ele>
        <time>2019-02-19T13:53:44Z</time>
      </trkpt>
      <trkpt lat="49.62389" lon="5.02259">
        <ele>164.04</ele>
        <time>2019-02-19T13:54:05Z</time>
      </trkpt>
      <trkpt lat="49.62392" lon="5.0223">
        <ele>165.48</ele>
        <time>2019-02-19T13:54:22Z</time>
      </trkpt>
      <trkpt lat="49.62397" lon="5.02193">
        <ele>167.89</ele>
        <time>2019-02-19T13:54:44Z</time>
      </trkpt>
      <trkpt lat="49.62398" lon="5.02164">
        <ele>169.81</ele>
        <time>2019-02-19T13:55:01Z</time>
      </trkpt>
      <trkpt lat="49.62398" lon="5.02133">
        <ele>171.25</ele>
        <time>2019-02-19T13:55:20Z</time>
      </trkpt>
      <trkpt lat="49.62405" lon="5.02102">
        <ele>172.21</ele>
        <time>2019-02-19T13:55:40Z</time>
      </trkpt>
      <trkpt lat="49.62423" lon="5.02085">
        <ele>175.1</ele>
        <time>2019-02-19T13:56:00Z</time>
      </trkpt>
      <trkpt lat="49.6244" lon="5.02076">
        <ele>177.02</ele>
        <time>2019-02-19T13:56:17Z</time>
      </trkpt>
      <trkpt lat="49.6246" lon="5.02065">
        <ele>179.42</ele>
        <time>2019-02-19T13:56:37Z</time>
      </trkpt>
      <trkpt lat="49.62479" lon="5.02057">
        <ele>181.35</ele>
        <time>2019-02-19T13:56:56Z</time>
      </trkpt>
      <trkpt lat="49.62502" lon="5.02053">
        <ele>183.27</ele>
        <time>2019-02-19T13:57:19Z</time>
      </trkpt>
      <trkpt lat="49.62524" lon="5.02059">
        <ele>185.19</ele>
        <time>2019-02-19T13:57:40Z</time>
      </trkpt>
      <trkpt lat="49.62548" lon="5.02067">
        <ele>186.15</ele>
        <time>2019-02-19T13:58:03Z</time>
      </trkpt>
      <trkpt lat="49.6257" lon="5.02076">
        <ele>187.59</ele>
        <time>2019-02-19T13:58:25Z</time>
      </trkpt>
      <trkpt lat="49.62592" lon="5.02085">
        <ele>188.56</ele>
        <time>2019-02-19T13:58:46Z</time>
      </trkpt>
      <trkpt lat="49.62608" lon="5.02072">
        <ele>189.52</ele>
        <time>2019-02-19T13:59:05Z</time>
      </trkpt>
      <trkpt lat="49.62617" lon="5.02043">
        <ele>190</ele>
        <time>2019-02-19T13:59:24Z</time>
      </trkpt>
      <trkpt lat="49.62624" lon="5.02012">
        <ele>190.48</ele>
        <time>2019-02-19T13:59:45Z</time>
      </trkpt>
      <trkpt lat="49.62631" lon="5.01986">
        <ele>192.88</ele>
        <time>2019-02-19T14:00:03Z</time>
      </trkpt>
      <trkpt lat="49.62641" lon="5.01956">
        <ele>196.73</ele>
        <time>2019-02-19T14:00:24Z</time>
      </trkpt>
      <trkpt lat="49.62652" lon="5.01929">
        <ele>200.57</ele>
        <time>2019-02-19T14:00:44Z</time>
      </trkpt>
      <trkpt lat="49.62664" lon="5.01899">
        <ele>204.42</ele>
        <time>2019-02-19T14:01:05Z</time>
      </trkpt>
      <trkpt lat="49.62673" lon="5.01874">
        <ele>204.42</ele>
        <time>2019-02-19T14:01:24Z</time>
      </trkpt>
      <trkpt lat="49.62684" lon="5.01848">
        <ele>205.38</ele>
        <time>2019-02-19T14:01:44Z</time>
      </trkpt>
      <trkpt lat="49.62691" lon="5.01827">
        <ele>205.38</ele>
        <time>2019-02-19T14:02:00Z</time>
      </trkpt>
      <trkpt lat="49.62702" lon="5.01804">
        <ele>205.86</ele>
        <time>2019-02-19T14:02:19Z</time>
      </trkpt>
      <trkpt lat="49.62706" lon="5.01798">
        <ele>206.34</ele>
        <time>2019-02-19T14:02:25Z</time>
      </trkpt>
      <trkpt lat="49.62712" lon="5.01788">
        <ele>207.3</ele>
        <time>2019-02-19T14:02:43Z</time>
      </trkpt>
      <trkpt lat="49.62716" lon="5.01784">
        <ele>206.82</ele>
        <time>2019-02-19T14:03:04Z</time>
      </trkpt>
      <trkpt lat="49.62731" lon="5.01766">
        <ele>208.74</ele>
        <time>2019-02-19T14:03:23Z</time>
      </trkpt>
      <trkpt lat="49.62739" lon="5.01757">
        <ele>210.19</ele>
        <time>2019-02-19T14:03:33Z</time>
      </trkpt>
      <trkpt lat="49.62754" lon="5.01742">
        <ele>212.59</ele>
        <time>2019-02-19T14:03:51Z</time>
      </trkpt>
      <trkpt lat="49.62769" lon="5.01724">
        <ele>214.99</ele>
        <time>2019-02-19T14:04:09Z</time>
      </trkpt>
      <trkpt lat="49.62782" lon="5.0171">
        <ele>217.4</ele>
        <time>2019-02-19T14:04:25Z</time>
      </trkpt>
      <trkpt lat="49.62799" lon="5.01691">
        <ele>219.8</ele>
        <time>2019-02-19T14:04:46Z</time>
      </trkpt>
      <trkpt lat="49.62814" lon="5.01674">
        <ele>222.2</ele>
        <time>2019-02-19T14:05:04Z</time>
      </trkpt>
      <trkpt lat="49.62828" lon="5.0165">
        <ele>223.64</ele>
        <time>2019-02-19T14:05:24Z</time>
      </trkpt>
      <trkpt lat="49.6283" lon="5.01644">
        <ele>224.61</ele>
        <time>2019-02-19T14:05:40Z</time>
      </trkpt>
      <trkpt lat="49.62837" lon="5.01625">
        <ele>225.57</ele>
        <time>2019-02-19T14:05:56Z</time>
      </trkpt>
      <trkpt lat="49.62846" lon="5.01601">
        <ele>227.49</ele>
        <time>2019-02-19T14:06:14Z</time>
      </trkpt>
      <trkpt lat="49.62855" lon="5.01574">
        <ele>230.37</ele>
        <time>2019-02-19T14:06:33Z</time>
      </trkpt>
      <trkpt lat="49.62864" lon="5.01552">
        <ele>233.74</ele>
        <time>2019-02-19T14:06:49Z</time>
      </trkpt>
      <trkpt lat="49.62871" lon="5.01528">
        <ele>236.14</ele>
        <time>2019-02-19T14:07:06Z</time>
      </trkpt>
      <trkpt lat="49.6288" lon="5.01502">
        <ele>239.02</ele>
        <time>2019-02-19T14:07:24Z</time>
      </trkpt>
      <trkpt lat="49.62888" lon="5.01473">
        <ele>242.87</ele>
        <time>2019-02-19T14:07:43Z</time>
      </trkpt>
      <trkpt lat="49.62894" lon="5.01444">
        <ele>245.75</ele>
        <time>2019-02-19T14:08:02Z</time>
      </trkpt>
      <trkpt lat="49.62899" lon="5.01416">
        <ele>248.64</ele>
        <time>2019-02-19T14:08:20Z</time>
      </trkpt>
      <trkpt lat="49.62905" lon="5.01385">
        <ele>249.12</ele>
        <time>2019-02-19T14:08:39Z</time>
      </trkpt>
      <trkpt lat="49.62911" lon="5.01352">
        <ele>248.64</ele>
        <time>2019-02-19T14:09:00Z</time>
      </trkpt>
      <trkpt lat="49.62912" lon="5.01335">
        <ele>248.16</ele>
        <time>2019-02-19T14:09:11Z</time>
      </trkpt>
      <trkpt lat="49.62914" lon="5.01304">
        <ele>247.68</ele>
        <time>2019-02-19T14:09:30Z</time>
      </trkpt>
      <trkpt lat="49.62916" lon="5.01274">
        <ele>250.08</ele>
        <time>2019-02-19T14:09:49Z</time>
      </trkpt>
      <trkpt lat="49.62917" lon="5.01241">
        <ele>251.04</ele>
        <time>2019-02-19T14:10:09Z</time>
      </trkpt>
      <trkpt lat="49.62918" lon="5.01209">
        <ele>251.52</ele>
        <time>2019-02-19T14:10:29Z</time>
      </trkpt>
      <trkpt lat="49.6292" lon="5.01177">
        <ele>251.04</ele>
        <time>2019-02-19T14:10:49Z</time>
      </trkpt>
      <trkpt lat="49.62923" lon="5.01149">
        <ele>251.04</ele>
        <time>2019-02-19T14:11:06Z</time>
      </trkpt>
      <trkpt lat="49.62927" lon="5.0112">
        <ele>250.08</ele>
        <time>2019-02-19T14:11:24Z</time>
      </trkpt>
      <trkpt lat="49.6293" lon="5.01103">
        <ele>249.6</ele>
        <time>2019-02-19T14:11:35Z</time>
      </trkpt>
      <trkpt lat="49.62937" lon="5.01072">
        <ele>252</ele>
        <time>2019-02-19T14:11:55Z</time>
      </trkpt>
      <trkpt lat="49.62944" lon="5.01038">
        <ele>252.96</ele>
        <time>2019-02-19T14:12:17Z</time>
      </trkpt>
      <trkpt lat="49.6295" lon="5.01009">
        <ele>253.44</ele>
        <time>2019-02-19T14:12:35Z</time>
      </trkpt>
      <trkpt lat="49.62955" lon="5.00975">
        <ele>253.44</ele>
        <time>2019-02-19T14:12:56Z</time>
      </trkpt>
      <trkpt lat="49.62959" lon="5.00942">
        <ele>254.41</ele>
        <time>2019-02-19T14:13:16Z</time>
      </trkpt>
      <trkpt lat="49.62964" lon="5.00912">
        <ele>253.93</ele>
        <time>2019-02-19T14:13:35Z</time>
      </trkpt>
      <trkpt lat="49.62965" lon="5.00885">
        <ele>252.96</ele>
        <time>2019-02-19T14:13:52Z</time>
      </trkpt>
      <trkpt lat="49.62966" lon="5.0087">
        <ele>252.48</ele>
        <time>2019-02-19T14:14:01Z</time>
      </trkpt>
      <trkpt lat="49.62968" lon="5.00842">
        <ele>251.52</ele>
        <time>2019-02-19T14:14:18Z</time>
      </trkpt>
      <trkpt lat="49.6297" lon="5.0081">
        <ele>251.04</ele>
        <time>2019-02-19T14:14:37Z</time>
      </trkpt>
      <trkpt lat="49.62974" lon="5.00782">
        <ele>251.04</ele>
        <time>2019-02-19T14:14:55Z</time>
      </trkpt>
      <trkpt lat="49.62977" lon="5.00748">
        <ele>252.48</ele>
        <time>2019-02-19T14:15:16Z</time>
      </trkpt>
      <trkpt lat="49.62979" lon="5.00719">
        <ele>251.52</ele>
        <time>2019-02-19T14:15:34Z</time>
      </trkpt>
      <trkpt lat="49.6298" lon="5.00702">
        <ele>251.52</ele>
        <time>2019-02-19T14:15:51Z</time>
      </trkpt>
      <trkpt lat="49.62985" lon="5.00671">
        <ele>252.48</ele>
        <time>2019-02-19T14:16:10Z</time>
      </trkpt>
      <trkpt lat="49.62981" lon="5.00643">
        <ele>252</ele>
        <time>2019-02-19T14:16:28Z</time>
      </trkpt>
      <trkpt lat="49.62974" lon="5.0062">
        <ele>250.56</ele>
        <time>2019-02-19T14:16:44Z</time>
      </trkpt>
      <trkpt lat="49.62972" lon="5.00617">
        <ele>250.08</ele>
        <time>2019-02-19T14:16:46Z</time>
      </trkpt>
      <trkpt lat="49.62963" lon="5.00595">
        <ele>245.75</ele>
        <time>2019-02-19T14:17:03Z</time>
      </trkpt>
      <trkpt lat="49.62955" lon="5.00568">
        <ele>243.35</ele>
        <time>2019-02-19T14:17:21Z</time>
      </trkpt>
      <trkpt lat="49.62953" lon="5.00547">
        <ele>242.39</ele>
        <time>2019-02-19T14:17:39Z</time>
      </trkpt>
      <trkpt lat="49.62955" lon="5.00544">
        <ele>242.39</ele>
        <time>2019-02-19T14:17:55Z</time>
      </trkpt>
      <trkpt lat="49.62956" lon="5.00544">
        <ele>242.87</ele>
        <time>2019-02-19T14:18:16Z</time>
      </trkpt>
      <trkpt lat="49.62957" lon="5.00543">
        <ele>243.35</ele>
        <time>2019-02-19T14:18:38Z</time>
      </trkpt>
      <trkpt lat="49.62958" lon="5.00543">
        <ele>243.35</ele>
        <time>2019-02-19T14:19:07Z</time>
      </trkpt>
      <trkpt lat="49.62958" lon="5.00543">
        <ele>243.35</ele>
        <time>2019-02-19T14:19:35Z</time>
      </trkpt>
      <trkpt lat="49.62957" lon="5.00543">
        <ele>243.83</ele>
        <time>2019-02-19T14:19:57Z</time>
      </trkpt>
      <trkpt lat="49.62957" lon="5.00544">
        <ele>243.83</ele>
        <time>2019-02-19T14:20:16Z</time>
      </trkpt>
      <trkpt lat="49.62957" lon="5.00543">
        <ele>243.83</ele>
        <time>2019-02-19T14:20:41Z</time>
      </trkpt>
      <trkpt lat="49.62956" lon="5.00543">
        <ele>244.31</ele>
        <time>2019-02-19T14:21:09Z</time>
      </trkpt>
      <trkpt lat="49.62956" lon="5.00544">
        <ele>243.83</ele>
        <time>2019-02-19T14:21:35Z</time>
      </trkpt>
      <trkpt lat="49.62956" lon="5.00545">
        <ele>244.31</ele>
        <time>2019-02-19T14:21:56Z</time>
      </trkpt>
      <trkpt lat="49.62957" lon="5.00545">
        <ele>242.87</ele>
        <time>2019-02-19T14:22:17Z</time>
      </trkpt>
      <trkpt lat="49.62958" lon="5.00544">
        <ele>241.91</ele>
        <time>2019-02-19T14:22:38Z</time>
      </trkpt>
      <trkpt lat="49.62957" lon="5.00544">
        <ele>242.39</ele>
        <time>2019-02-19T14:23:05Z</time>
      </trkpt>
      <trkpt lat="49.62955" lon="5.00543">
        <ele>242.39</ele>
        <time>2019-02-19T14:23:36Z</time>
      </trkpt>
      <trkpt lat="49.62955" lon="5.00542">
        <ele>242.39</ele>
        <time>2019-02-19T14:24:01Z</time>
      </trkpt>
      <trkpt lat="49.62955" lon="5.00544">
        <ele>243.83</ele>
        <time>2019-02-19T14:24:13Z</time>
      </trkpt>
      <trkpt lat="49.62954" lon="5.00543">
        <ele>246.23</ele>
        <time>2019-02-19T14:24:26Z</time>
      </trkpt>
      <trkpt lat="49.62954" lon="5.00545">
        <ele>247.68</ele>
        <time>2019-02-19T14:24:37Z</time>
      </trkpt>
      <trkpt lat="49.62962" lon="5.00552">
        <ele>248.64</ele>
        <time>2019-02-19T14:24:53Z</time>
      </trkpt>
      <trkpt lat="49.62963" lon="5.00553">
        <ele>248.64</ele>
        <time>2019-02-19T14:24:54Z</time>
      </trkpt>
      <trkpt lat="49.62981" lon="5.00571">
        <ele>252</ele>
        <time>2019-02-19T14:25:13Z</time>
      </trkpt>
      <trkpt lat="49.62992" lon="5.00583">
        <ele>252.96</ele>
        <time>2019-02-19T14:25:28Z</time>
      </trkpt>
      <trkpt lat="49.63003" lon="5.00599">
        <ele>255.85</ele>
        <time>2019-02-19T14:25:42Z</time>
      </trkpt>
      <trkpt lat="49.63008" lon="5.00609">
        <ele>257.29</ele>
        <time>2019-02-19T14:25:49Z</time>
      </trkpt>
      <trkpt lat="49.63016" lon="5.0062">
        <ele>258.25</ele>
        <time>2019-02-19T14:25:59Z</time>
      </trkpt>
      <trkpt lat="49.63019" lon="5.00622">
        <ele>258.25</ele>
        <time>2019-02-19T14:26:02Z</time>
      </trkpt>
      <trkpt lat="49.63033" lon="5.00644">
        <ele>258.25</ele>
        <time>2019-02-19T14:26:21Z</time>
      </trkpt>
      <trkpt lat="49.63043" lon="5.00663">
        <ele>257.29</ele>
        <time>2019-02-19T14:26:36Z</time>
      </trkpt>
      <trkpt lat="49.63044" lon="5.00665">
        <ele>257.29</ele>
        <time>2019-02-19T14:26:38Z</time>
      </trkpt>
      <trkpt lat="49.63053" lon="5.00683">
        <ele>257.29</ele>
        <time>2019-02-19T14:26:52Z</time>
      </trkpt>
      <trkpt lat="49.63054" lon="5.00687">
        <ele>257.29</ele>
        <time>2019-02-19T14:26:55Z</time>
      </trkpt>
      <trkpt lat="49.63065" lon="5.00714">
        <ele>257.77</ele>
        <time>2019-02-19T14:27:15Z</time>
      </trkpt>
      <trkpt lat="49.63074" lon="5.00735">
        <ele>257.29</ele>
        <time>2019-02-19T14:27:32Z</time>
      </trkpt>
      <trkpt lat="49.63082" lon="5.00755">
        <ele>253.93</ele>
        <time>2019-02-19T14:27:49Z</time>
      </trkpt>
      <trkpt lat="49.63087" lon="5.00775">
        <ele>252.48</ele>
        <time>2019-02-19T14:28:04Z</time>
      </trkpt>
      <trkpt lat="49.63091" lon="5.00794">
        <ele>252.96</ele>
        <time>2019-02-19T14:28:20Z</time>
      </trkpt>
      <trkpt lat="49.63097" lon="5.0082">
        <ele>251.52</ele>
        <time>2019-02-19T14:28:39Z</time>
      </trkpt>
      <trkpt lat="49.63105" lon="5.00841">
        <ele>250.56</ele>
        <time>2019-02-19T14:28:56Z</time>
      </trkpt>
      <trkpt lat="49.6311" lon="5.00855">
        <ele>248.16</ele>
        <time>2019-02-19T14:29:13Z</time>
      </trkpt>
      <trkpt lat="49.63115" lon="5.00866">
        <ele>247.2</ele>
        <time>2019-02-19T14:29:28Z</time>
      </trkpt>
      <trkpt lat="49.63125" lon="5.00888">
        <ele>249.12</ele>
        <time>2019-02-19T14:29:40Z</time>
      </trkpt>
      <trkpt lat="49.63129" lon="5.00899">
        <ele>248.64</ele>
        <time>2019-02-19T14:29:46Z</time>
      </trkpt>
      <trkpt lat="49.63135" lon="5.00906">
        <ele>248.16</ele>
        <time>2019-02-19T14:29:52Z</time>
      </trkpt>
      <trkpt lat="49.63138" lon="5.0091">
        <ele>248.64</ele>
        <time>2019-02-19T14:29:55Z</time>
      </trkpt>
      <trkpt lat="49.63151" lon="5.00928">
        <ele>247.2</ele>
        <time>2019-02-19T14:30:11Z</time>
      </trkpt>
      <trkpt lat="49.63161" lon="5.0095">
        <ele>241.91</ele>
        <time>2019-02-19T14:30:28Z</time>
      </trkpt>
      <trkpt lat="49.63172" lon="5.0096">
        <ele>240.95</ele>
        <time>2019-02-19T14:30:45Z</time>
      </trkpt>
      <trkpt lat="49.63182" lon="5.00972">
        <ele>239.02</ele>
        <time>2019-02-19T14:30:58Z</time>
      </trkpt>
      <trkpt lat="49.63195" lon="5.00984">
        <ele>237.1</ele>
        <time>2019-02-19T14:31:14Z</time>
      </trkpt>
      <trkpt lat="49.63208" lon="5.00995">
        <ele>235.66</ele>
        <time>2019-02-19T14:31:33Z</time>
      </trkpt>
      <trkpt lat="49.63219" lon="5.01003">
        <ele>235.18</ele>
        <time>2019-02-19T14:31:49Z</time>
      </trkpt>
      <trkpt lat="49.63237" lon="5.01012">
        <ele>231.81</ele>
        <time>2019-02-19T14:32:08Z</time>
      </trkpt>
      <trkpt lat="49.6325" lon="5.01019">
        <ele>229.89</ele>
        <time>2019-02-19T14:32:25Z</time>
      </trkpt>
      <trkpt lat="49.63265" lon="5.01021">
        <ele>227.49</ele>
        <time>2019-02-19T14:32:42Z</time>
      </trkpt>
      <trkpt lat="49.63279" lon="5.01028">
        <ele>225.09</ele>
        <time>2019-02-19T14:33:00Z</time>
      </trkpt>
      <trkpt lat="49.63292" lon="5.01037">
        <ele>223.16</ele>
        <time>2019-02-19T14:33:16Z</time>
      </trkpt>
      <trkpt lat="49.63299" lon="5.0104">
        <ele>222.68</ele>
        <time>2019-02-19T14:33:24Z</time>
      </trkpt>
      <trkpt lat="49.63313" lon="5.01047">
        <ele>219.8</ele>
        <time>2019-02-19T14:33:41Z</time>
      </trkpt>
      <trkpt lat="49.63318" lon="5.01049">
        <ele>218.36</ele>
        <time>2019-02-19T14:33:52Z</time>
      </trkpt>
      <trkpt lat="49.6333" lon="5.01055">
        <ele>216.91</ele>
        <time>2019-02-19T14:34:09Z</time>
      </trkpt>
      <trkpt lat="49.63347" lon="5.01066">
        <ele>214.99</ele>
        <time>2019-02-19T14:34:30Z</time>
      </trkpt>
      <trkpt lat="49.63362" lon="5.01074">
        <ele>213.07</ele>
        <time>2019-02-19T14:34:48Z</time>
      </trkpt>
      <trkpt lat="49.63365" lon="5.01076">
        <ele>212.59</ele>
        <time>2019-02-19T14:34:51Z</time>
      </trkpt>
      <trkpt lat="49.63378" lon="5.01082">
        <ele>211.63</ele>
        <time>2019-02-19T14:35:05Z</time>
      </trkpt>
      <trkpt lat="49.63396" lon="5.01093">
        <ele>209.7</ele>
        <time>2019-02-19T14:35:25Z</time>
      </trkpt>
      <trkpt lat="49.63398" lon="5.01094">
        <ele>208.74</ele>
        <time>2019-02-19T14:35:28Z</time>
      </trkpt>
      <trkpt lat="49.63418" lon="5.01102">
        <ele>207.3</ele>
        <time>2019-02-19T14:35:47Z</time>
      </trkpt>
      <trkpt lat="49.63439" lon="5.01113">
        <ele>206.82</ele>
        <time>2019-02-19T14:36:07Z</time>
      </trkpt>
      <trkpt lat="49.63461" lon="5.01124">
        <ele>205.86</ele>
        <time>2019-02-19T14:36:28Z</time>
      </trkpt>
      <trkpt lat="49.63468" lon="5.01129">
        <ele>205.38</ele>
        <time>2019-02-19T14:36:36Z</time>
      </trkpt>
      <trkpt lat="49.63489" lon="5.01145">
        <ele>201.05</ele>
        <time>2019-02-19T14:36:58Z</time>
      </trkpt>
      <trkpt lat="49.6349" lon="5.01145">
        <ele>200.57</ele>
        <time>2019-02-19T14:36:59Z</time>
      </trkpt>
      <trkpt lat="49.63507" lon="5.01159">
        <ele>197.21</ele>
        <time>2019-02-19T14:37:18Z</time>
      </trkpt>
      <trkpt lat="49.63526" lon="5.01173">
        <ele>193.36</ele>
        <time>2019-02-19T14:37:38Z</time>
      </trkpt>
      <trkpt lat="49.63543" lon="5.01184">
        <ele>191.92</ele>
        <time>2019-02-19T14:37:56Z</time>
      </trkpt>
      <trkpt lat="49.6356" lon="5.01197">
        <ele>191.44</ele>
        <time>2019-02-19T14:38:15Z</time>
      </trkpt>
      <trkpt lat="49.63578" lon="5.01212">
        <ele>189.52</ele>
        <time>2019-02-19T14:38:35Z</time>
      </trkpt>
      <trkpt lat="49.63591" lon="5.01226">
        <ele>186.15</ele>
        <time>2019-02-19T14:38:54Z</time>
      </trkpt>
      <trkpt lat="49.6361" lon="5.01239">
        <ele>184.71</ele>
        <time>2019-02-19T14:39:15Z</time>
      </trkpt>
      <trkpt lat="49.63624" lon="5.01253">
        <ele>182.79</ele>
        <time>2019-02-19T14:39:32Z</time>
      </trkpt>
      <trkpt lat="49.63637" lon="5.01266">
        <ele>178.94</ele>
        <time>2019-02-19T14:39:49Z</time>
      </trkpt>
      <trkpt lat="49.63657" lon="5.01286">
        <ele>178.94</ele>
        <time>2019-02-19T14:40:09Z</time>
      </trkpt>
      <trkpt lat="49.63674" lon="5.01302">
        <ele>176.06</ele>
        <time>2019-02-19T14:40:28Z</time>
      </trkpt>
      <trkpt lat="49.63692" lon="5.0132">
        <ele>178.46</ele>
        <time>2019-02-19T14:40:47Z</time>
      </trkpt>
      <trkpt lat="49.63707" lon="5.01337">
        <ele>176.54</ele>
        <time>2019-02-19T14:41:05Z</time>
      </trkpt>
      <trkpt lat="49.63727" lon="5.01355">
        <ele>177.02</ele>
        <time>2019-02-19T14:41:24Z</time>
      </trkpt>
      <trkpt lat="49.63738" lon="5.01365">
        <ele>178.94</ele>
        <time>2019-02-19T14:41:34Z</time>
      </trkpt>
      <trkpt lat="49.63755" lon="5.01379">
        <ele>180.38</ele>
        <time>2019-02-19T14:41:53Z</time>
      </trkpt>
      <trkpt lat="49.63764" lon="5.01383">
        <ele>180.87</ele>
        <time>2019-02-19T14:42:01Z</time>
      </trkpt>
      <trkpt lat="49.6378" lon="5.01389">
        <ele>179.9</ele>
        <time>2019-02-19T14:42:18Z</time>
      </trkpt>
      <trkpt lat="49.63796" lon="5.01387">
        <ele>180.38</ele>
        <time>2019-02-19T14:42:34Z</time>
      </trkpt>
      <trkpt lat="49.63816" lon="5.01379">
        <ele>179.42</ele>
        <time>2019-02-19T14:42:54Z</time>
      </trkpt>
      <trkpt lat="49.63835" lon="5.01371">
        <ele>176.06</ele>
        <time>2019-02-19T14:43:14Z</time>
      </trkpt>
      <trkpt lat="49.6385" lon="5.01364">
        <ele>174.14</ele>
        <time>2019-02-19T14:43:30Z</time>
      </trkpt>
      <trkpt lat="49.63869" lon="5.01362">
        <ele>173.17</ele>
        <time>2019-02-19T14:43:48Z</time>
      </trkpt>
      <trkpt lat="49.63887" lon="5.0136">
        <ele>172.69</ele>
        <time>2019-02-19T14:44:06Z</time>
      </trkpt>
      <trkpt lat="49.63907" lon="5.0136">
        <ele>168.37</ele>
        <time>2019-02-19T14:44:28Z</time>
      </trkpt>
      <trkpt lat="49.63928" lon="5.01358">
        <ele>167.89</ele>
        <time>2019-02-19T14:44:48Z</time>
      </trkpt>
      <trkpt lat="49.63953" lon="5.01356">
        <ele>165.96</ele>
        <time>2019-02-19T14:45:10Z</time>
      </trkpt>
      <trkpt lat="49.63976" lon="5.01355">
        <ele>165</ele>
        <time>2019-02-19T14:45:32Z</time>
      </trkpt>
      <trkpt lat="49.63988" lon="5.01364">
        <ele>163.08</ele>
        <time>2019-02-19T14:45:46Z</time>
      </trkpt>
      <trkpt lat="49.63995" lon="5.01372">
        <ele>161.16</ele>
        <time>2019-02-19T14:45:59Z</time>
      </trkpt>
      <trkpt lat="49.64009" lon="5.01391">
        <ele>158.75</ele>
        <time>2019-02-19T14:46:17Z</time>
      </trkpt>
      <trkpt lat="49.64023" lon="5.01413">
        <ele>157.79</ele>
        <time>2019-02-19T14:46:35Z</time>
      </trkpt>
      <trkpt lat="49.64036" lon="5.0144">
        <ele>159.24</ele>
        <time>2019-02-19T14:46:53Z</time>
      </trkpt>
      <trkpt lat="49.64049" lon="5.01465">
        <ele>159.72</ele>
        <time>2019-02-19T14:47:13Z</time>
      </trkpt>
      <trkpt lat="49.64059" lon="5.01486">
        <ele>157.79</ele>
        <time>2019-02-19T14:47:28Z</time>
      </trkpt>
      <trkpt lat="49.64064" lon="5.01505">
        <ele>157.79</ele>
        <time>2019-02-19T14:47:41Z</time>
      </trkpt>
      <trkpt lat="49.64081" lon="5.01517">
        <ele>158.75</ele>
        <time>2019-02-19T14:47:58Z</time>
      </trkpt>
      <trkpt lat="49.64098" lon="5.01512">
        <ele>158.75</ele>
        <time>2019-02-19T14:48:16Z</time>
      </trkpt>
      <trkpt lat="49.6412" lon="5.01505">
        <ele>160.2</ele>
        <time>2019-02-19T14:48:36Z</time>
      </trkpt>
      <trkpt lat="49.64125" lon="5.015">
        <ele>160.68</ele>
        <time>2019-02-19T14:48:41Z</time>
      </trkpt>
      <trkpt lat="49.64147" lon="5.01492">
        <ele>162.6</ele>
        <time>2019-02-19T14:49:01Z</time>
      </trkpt>
      <trkpt lat="49.64169" lon="5.01485">
        <ele>163.56</ele>
        <time>2019-02-19T14:49:22Z</time>
      </trkpt>
      <trkpt lat="49.64194" lon="5.01476">
        <ele>164.04</ele>
        <time>2019-02-19T14:49:44Z</time>
      </trkpt>
      <trkpt lat="49.64213" lon="5.01463">
        <ele>164.52</ele>
        <time>2019-02-19T14:50:04Z</time>
      </trkpt>
      <trkpt lat="49.64231" lon="5.01446">
        <ele>165.96</ele>
        <time>2019-02-19T14:50:23Z</time>
      </trkpt>
      <trkpt lat="49.64245" lon="5.01431">
        <ele>165.96</ele>
        <time>2019-02-19T14:50:39Z</time>
      </trkpt>
      <trkpt lat="49.64261" lon="5.01416">
        <ele>165.96</ele>
        <time>2019-02-19T14:50:56Z</time>
      </trkpt>
      <trkpt lat="49.64266" lon="5.0141">
        <ele>165.96</ele>
        <time>2019-02-19T14:51:02Z</time>
      </trkpt>
      <trkpt lat="49.64283" lon="5.01389">
        <ele>166.45</ele>
        <time>2019-02-19T14:51:22Z</time>
      </trkpt>
      <trkpt lat="49.64296" lon="5.01373">
        <ele>166.93</ele>
        <time>2019-02-19T14:51:39Z</time>
      </trkpt>
      <trkpt lat="49.64313" lon="5.0137">
        <ele>165.96</ele>
        <time>2019-02-19T14:51:57Z</time>
      </trkpt>
      <trkpt lat="49.64327" lon="5.01377">
        <ele>163.56</ele>
        <time>2019-02-19T14:52:14Z</time>
      </trkpt>
      <trkpt lat="49.6434" lon="5.01391">
        <ele>161.16</ele>
        <time>2019-02-19T14:52:33Z</time>
      </trkpt>
      <trkpt lat="49.64354" lon="5.01407">
        <ele>158.75</ele>
        <time>2019-02-19T14:52:52Z</time>
      </trkpt>
      <trkpt lat="49.64355" lon="5.01408">
        <ele>158.75</ele>
        <time>2019-02-19T14:52:53Z</time>
      </trkpt>
      <trkpt lat="49.64375" lon="5.01429">
        <ele>159.24</ele>
        <time>2019-02-19T14:53:15Z</time>
      </trkpt>
      <trkpt lat="49.64387" lon="5.01442">
        <ele>162.12</ele>
        <time>2019-02-19T14:53:32Z</time>
      </trkpt>
      <trkpt lat="49.64398" lon="5.01451">
        <ele>161.16</ele>
        <time>2019-02-19T14:53:46Z</time>
      </trkpt>
      <trkpt lat="49.64415" lon="5.01464">
        <ele>162.12</ele>
        <time>2019-02-19T14:54:05Z</time>
      </trkpt>
      <trkpt lat="49.6443" lon="5.01474">
        <ele>160.68</ele>
        <time>2019-02-19T14:54:22Z</time>
      </trkpt>
      <trkpt lat="49.64448" lon="5.01488">
        <ele>159.24</ele>
        <time>2019-02-19T14:54:42Z</time>
      </trkpt>
      <trkpt lat="49.64465" lon="5.015">
        <ele>158.27</ele>
        <time>2019-02-19T14:55:00Z</time>
      </trkpt>
      <trkpt lat="49.64481" lon="5.01513">
        <ele>157.31</ele>
        <time>2019-02-19T14:55:17Z</time>
      </trkpt>
      <trkpt lat="49.64495" lon="5.01522">
        <ele>155.87</ele>
        <time>2019-02-19T14:55:33Z</time>
      </trkpt>
      <trkpt lat="49.64501" lon="5.01519">
        <ele>155.87</ele>
        <time>2019-02-19T14:55:39Z</time>
      </trkpt>
      <trkpt lat="49.64511" lon="5.01493">
        <ele>154.43</ele>
        <time>2019-02-19T14:55:58Z</time>
      </trkpt>
      <trkpt lat="49.64521" lon="5.01462">
        <ele>154.43</ele>
        <time>2019-02-19T14:56:19Z</time>
      </trkpt>
      <trkpt lat="49.64525" lon="5.01451">
        <ele>153.95</ele>
        <time>2019-02-19T14:56:27Z</time>
      </trkpt>
      <trkpt lat="49.64543" lon="5.01444">
        <ele>154.43</ele>
        <time>2019-02-19T14:56:44Z</time>
      </trkpt>
      <trkpt lat="49.64551" lon="5.01453">
        <ele>152.99</ele>
        <time>2019-02-19T14:56:55Z</time>
      </trkpt>
      <trkpt lat="49.64568" lon="5.01469">
        <ele>151.06</ele>
        <time>2019-02-19T14:57:14Z</time>
      </trkpt>
      <trkpt lat="49.64591" lon="5.01487">
        <ele>154.43</ele>
        <time>2019-02-19T14:57:35Z</time>
      </trkpt>
      <trkpt lat="49.64612" lon="5.01505">
        <ele>154.43</ele>
        <time>2019-02-19T14:57:56Z</time>
      </trkpt>
      <trkpt lat="49.6464" lon="5.01517">
        <ele>156.35</ele>
        <time>2019-02-19T14:58:20Z</time>
      </trkpt>
      <trkpt lat="49.64659" lon="5.01528">
        <ele>156.35</ele>
        <time>2019-02-19T14:58:40Z</time>
      </trkpt>
      <trkpt lat="49.64678" lon="5.01537">
        <ele>154.43</ele>
        <time>2019-02-19T14:59:00Z</time>
      </trkpt>
      <trkpt lat="49.64697" lon="5.01545">
        <ele>152.99</ele>
        <time>2019-02-19T14:59:18Z</time>
      </trkpt>
      <trkpt lat="49.64718" lon="5.01558">
        <ele>152.03</ele>
        <time>2019-02-19T14:59:38Z</time>
      </trkpt>
      <trkpt lat="49.6473" lon="5.01575">
        <ele>151.54</ele>
        <time>2019-02-19T14:59:54Z</time>
      </trkpt>
      <trkpt lat="49.6473" lon="5.01579">
        <ele>152.03</ele>
        <time>2019-02-19T14:59:57Z</time>
      </trkpt>
      <trkpt lat="49.64732" lon="5.01618">
        <ele>155.39</ele>
        <time>2019-02-19T15:00:19Z</time>
      </trkpt>
      <trkpt lat="49.64737" lon="5.01652">
        <ele>158.27</ele>
        <time>2019-02-19T15:00:40Z</time>
      </trkpt>
      <trkpt lat="49.64753" lon="5.01664">
        <ele>160.2</ele>
        <time>2019-02-19T15:00:58Z</time>
      </trkpt>
      <trkpt lat="49.64757" lon="5.01666">
        <ele>159.24</ele>
        <time>2019-02-19T15:01:13Z</time>
      </trkpt>
      <trkpt lat="49.64756" lon="5.01665">
        <ele>159.72</ele>
        <time>2019-02-19T15:01:32Z</time>
      </trkpt>
      <trkpt lat="49.64755" lon="5.01663">
        <ele>159.72</ele>
        <time>2019-02-19T15:02:02Z</time>
      </trkpt>
      <trkpt lat="49.64755" lon="5.01664">
        <ele>159.72</ele>
        <time>2019-02-19T15:02:12Z</time>
      </trkpt>
      <trkpt lat="49.64756" lon="5.01662">
        <ele>159.72</ele>
        <time>2019-02-19T15:02:28Z</time>
      </trkpt>
      <trkpt lat="49.64756" lon="5.01661">
        <ele>159.72</ele>
        <time>2019-02-19T15:02:53Z</time>
      </trkpt>
      <trkpt lat="49.64758" lon="5.01661">
        <ele>160.68</ele>
        <time>2019-02-19T15:03:22Z</time>
      </trkpt>
      <trkpt lat="49.64756" lon="5.0166">
        <ele>160.68</ele>
        <time>2019-02-19T15:03:43Z</time>
      </trkpt>
      <trkpt lat="49.64756" lon="5.01661">
        <ele>159.24</ele>
        <time>2019-02-19T15:04:11Z</time>
      </trkpt>
      <trkpt lat="49.64755" lon="5.01662">
        <ele>159.72</ele>
        <time>2019-02-19T15:04:37Z</time>
      </trkpt>
      <trkpt lat="49.64754" lon="5.01663">
        <ele>159.72</ele>
        <time>2019-02-19T15:05:06Z</time>
      </trkpt>
      <trkpt lat="49.64754" lon="5.01663">
        <ele>160.2</ele>
        <time>2019-02-19T15:05:40Z</time>
      </trkpt>
      <trkpt lat="49.64754" lon="5.01664">
        <ele>160.2</ele>
        <time>2019-02-19T15:05:56Z</time>
      </trkpt>
      <trkpt lat="49.64755" lon="5.01666">
        <ele>159.72</ele>
        <time>2019-02-19T15:06:16Z</time>
      </trkpt>
      <trkpt lat="49.64756" lon="5.01667">
        <ele>159.24</ele>
        <time>2019-02-19T15:06:35Z</time>
      </trkpt>
      <trkpt lat="49.64757" lon="5.01665">
        <ele>160.2</ele>
        <time>2019-02-19T15:06:58Z</time>
      </trkpt>
      <trkpt lat="49.64756" lon="5.01664">
        <ele>160.2</ele>
        <time>2019-02-19T15:07:15Z</time>
      </trkpt>
      <trkpt lat="49.64757" lon="5.01665">
        <ele>160.2</ele>
        <time>2019-02-19T15:07:32Z</time>
      </trkpt>
      <trkpt lat="49.64758" lon="5.01667">
        <ele>159.72</ele>
        <time>2019-02-19T15:07:50Z</time>
      </trkpt>
      <trkpt lat="49.64757" lon="5.01666">
        <ele>159.24</ele>
        <time>2019-02-19T15:08:08Z</time>
      </trkpt>
      <trkpt lat="49.64754" lon="5.01662">
        <ele>159.24</ele>
        <time>2019-02-19T15:08:13Z</time>
      </trkpt>
      <trkpt lat="49.64755" lon="5.01652">
        <ele>159.24</ele>
        <time>2019-02-19T15:08:21Z</time>
      </trkpt>
      <trkpt lat="49.64763" lon="5.0163">
        <ele>157.79</ele>
        <time>2019-02-19T15:08:38Z</time>
      </trkpt>
      <trkpt lat="49.64771" lon="5.01608">
        <ele>156.83</ele>
        <time>2019-02-19T15:08:55Z</time>
      </trkpt>
      <trkpt lat="49.64781" lon="5.01582">
        <ele>156.83</ele>
        <time>2019-02-19T15:09:12Z</time>
      </trkpt>
      <trkpt lat="49.64789" lon="5.01557">
        <ele>156.83</ele>
        <time>2019-02-19T15:09:28Z</time>
      </trkpt>
      <trkpt lat="49.64799" lon="5.01527">
        <ele>156.35</ele>
        <time>2019-02-19T15:09:47Z</time>
      </trkpt>
      <trkpt lat="49.64809" lon="5.01494">
        <ele>156.83</ele>
        <time>2019-02-19T15:10:07Z</time>
      </trkpt>
      <trkpt lat="49.64818" lon="5.01465">
        <ele>155.39</ele>
        <time>2019-02-19T15:10:26Z</time>
      </trkpt>
      <trkpt lat="49.64828" lon="5.01435">
        <ele>156.83</ele>
        <time>2019-02-19T15:10:45Z</time>
      </trkpt>
      <trkpt lat="49.64838" lon="5.01404">
        <ele>157.31</ele>
        <time>2019-02-19T15:11:06Z</time>
      </trkpt>
      <trkpt lat="49.64849" lon="5.01373">
        <ele>156.83</ele>
        <time>2019-02-19T15:11:26Z</time>
      </trkpt>
      <trkpt lat="49.64861" lon="5.01341">
        <ele>157.79</ele>
        <time>2019-02-19T15:11:46Z</time>
      </trkpt>
      <trkpt lat="49.6487" lon="5.0131">
        <ele>156.35</ele>
        <time>2019-02-19T15:12:06Z</time>
      </trkpt>
      <trkpt lat="49.64879" lon="5.01277">
        <ele>155.87</ele>
        <time>2019-02-19T15:12:26Z</time>
      </trkpt>
      <trkpt lat="49.64886" lon="5.01245">
        <ele>155.87</ele>
        <time>2019-02-19T15:12:46Z</time>
      </trkpt>
      <trkpt lat="49.64893" lon="5.01214">
        <ele>156.35</ele>
        <time>2019-02-19T15:13:06Z</time>
      </trkpt>
      <trkpt lat="49.64899" lon="5.01183">
        <ele>157.79</ele>
        <time>2019-02-19T15:13:24Z</time>
      </trkpt>
      <trkpt lat="49.64901" lon="5.01149">
        <ele>156.83</ele>
        <time>2019-02-19T15:13:43Z</time>
      </trkpt>
      <trkpt lat="49.64904" lon="5.01119">
        <ele>153.95</ele>
        <time>2019-02-19T15:14:01Z</time>
      </trkpt>
      <trkpt lat="49.64904" lon="5.01088">
        <ele>153.95</ele>
        <time>2019-02-19T15:14:19Z</time>
      </trkpt>
      <trkpt lat="49.64903" lon="5.01057">
        <ele>153.95</ele>
        <time>2019-02-19T15:14:36Z</time>
      </trkpt>
      <trkpt lat="49.64902" lon="5.01024">
        <ele>152.99</ele>
        <time>2019-02-19T15:14:55Z</time>
      </trkpt>
      <trkpt lat="49.64902" lon="5.01006">
        <ele>152.99</ele>
        <time>2019-02-19T15:15:06Z</time>
      </trkpt>
      <trkpt lat="49.64902" lon="5.0098">
        <ele>154.43</ele>
        <time>2019-02-19T15:15:22Z</time>
      </trkpt>
      <trkpt lat="49.649" lon="5.0095">
        <ele>156.35</ele>
        <time>2019-02-19T15:15:41Z</time>
      </trkpt>
      <trkpt lat="49.64899" lon="5.00923">
        <ele>155.39</ele>
        <time>2019-02-19T15:15:57Z</time>
      </trkpt>
      <trkpt lat="49.64899" lon="5.00887">
        <ele>155.39</ele>
        <time>2019-02-19T15:16:17Z</time>
      </trkpt>
      <trkpt lat="49.64897" lon="5.00859">
        <ele>154.91</ele>
        <time>2019-02-19T15:16:34Z</time>
      </trkpt>
      <trkpt lat="49.64898" lon="5.00826">
        <ele>154.43</ele>
        <time>2019-02-19T15:16:54Z</time>
      </trkpt>
      <trkpt lat="49.64899" lon="5.00806">
        <ele>154.43</ele>
        <time>2019-02-19T15:17:09Z</time>
      </trkpt>
      <trkpt lat="49.64901" lon="5.00774">
        <ele>154.43</ele>
        <time>2019-02-19T15:17:28Z</time>
      </trkpt>
      <trkpt lat="49.64903" lon="5.00744">
        <ele>153.95</ele>
        <time>2019-02-19T15:17:46Z</time>
      </trkpt>
      <trkpt lat="49.64906" lon="5.00715">
        <ele>153.47</ele>
        <time>2019-02-19T15:18:03Z</time>
      </trkpt>
      <trkpt lat="49.64908" lon="5.00686">
        <ele>152.99</ele>
        <time>2019-02-19T15:18:21Z</time>
      </trkpt>
      <trkpt lat="49.64912" lon="5.00659">
        <ele>153.47</ele>
        <time>2019-02-19T15:18:38Z</time>
      </trkpt>
      <trkpt lat="49.64917" lon="5.00632">
        <ele>152.99</ele>
        <time>2019-02-19T15:18:54Z</time>
      </trkpt>
      <trkpt lat="49.64921" lon="5.00601">
        <ele>151.06</ele>
        <time>2019-02-19T15:19:12Z</time>
      </trkpt>
      <trkpt lat="49.64926" lon="5.00573">
        <ele>150.1</ele>
        <time>2019-02-19T15:19:29Z</time>
      </trkpt>
      <trkpt lat="49.64933" lon="5.00541">
        <ele>149.62</ele>
        <time>2019-02-19T15:19:48Z</time>
      </trkpt>
      <trkpt lat="49.64941" lon="5.0051">
        <ele>150.1</ele>
        <time>2019-02-19T15:20:07Z</time>
      </trkpt>
      <trkpt lat="49.64949" lon="5.0048">
        <ele>148.66</ele>
        <time>2019-02-19T15:20:25Z</time>
      </trkpt>
      <trkpt lat="49.64957" lon="5.00448">
        <ele>149.62</ele>
        <time>2019-02-19T15:20:44Z</time>
      </trkpt>
      <trkpt lat="49.64968" lon="5.00419">
        <ele>149.14</ele>
        <time>2019-02-19T15:21:02Z</time>
      </trkpt>
      <trkpt lat="49.64972" lon="5.0041">
        <ele>150.1</ele>
        <time>2019-02-19T15:21:16Z</time>
      </trkpt>
      <trkpt lat="49.64973" lon="5.00408">
        <ele>152.99</ele>
        <time>2019-02-19T15:21:32Z</time>
      </trkpt>
      <trkpt lat="49.64979" lon="5.00393">
        <ele>152.51</ele>
        <time>2019-02-19T15:21:46Z</time>
      </trkpt>
      <trkpt lat="49.64988" lon="5.00371">
        <ele>152.03</ele>
        <time>2019-02-19T15:22:01Z</time>
      </trkpt>
      <trkpt lat="49.64998" lon="5.00343">
        <ele>151.06</ele>
        <time>2019-02-19T15:22:20Z</time>
      </trkpt>
      <trkpt lat="49.6501" lon="5.00317">
        <ele>151.06</ele>
        <time>2019-02-19T15:22:38Z</time>
      </trkpt>
      <trkpt lat="49.65024" lon="5.0029">
        <ele>152.99</ele>
        <time>2019-02-19T15:22:58Z</time>
      </trkpt>
      <trkpt lat="49.65035" lon="5.00266">
        <ele>151.54</ele>
        <time>2019-02-19T15:23:16Z</time>
      </trkpt>
      <trkpt lat="49.65046" lon="5.00241">
        <ele>151.06</ele>
        <time>2019-02-19T15:23:33Z</time>
      </trkpt>
      <trkpt lat="49.6506" lon="5.00215">
        <ele>151.54</ele>
        <time>2019-02-19T15:23:52Z</time>
      </trkpt>
      <trkpt lat="49.65072" lon="5.00188">
        <ele>152.03</ele>
        <time>2019-02-19T15:24:11Z</time>
      </trkpt>
      <trkpt lat="49.65086" lon="5.00162">
        <ele>152.51</ele>
        <time>2019-02-19T15:24:30Z</time>
      </trkpt>
      <trkpt lat="49.65097" lon="5.00137">
        <ele>151.54</ele>
        <time>2019-02-19T15:24:48Z</time>
      </trkpt>
      <trkpt lat="49.65113" lon="5.00109">
        <ele>152.03</ele>
        <time>2019-02-19T15:25:09Z</time>
      </trkpt>
      <trkpt lat="49.65124" lon="5.00084">
        <ele>151.54</ele>
        <time>2019-02-19T15:25:26Z</time>
      </trkpt>
      <trkpt lat="49.65136" lon="5.00061">
        <ele>152.51</ele>
        <time>2019-02-19T15:25:43Z</time>
      </trkpt>
      <trkpt lat="49.6515" lon="5.00035">
        <ele>153.47</ele>
        <time>2019-02-19T15:26:03Z</time>
      </trkpt>
      <trkpt lat="49.65164" lon="5.00005">
        <ele>152.99</ele>
        <time>2019-02-19T15:26:24Z</time>
      </trkpt>
      <trkpt lat="49.65173" lon="4.99976">
        <ele>153.47</ele>
        <time>2019-02-19T15:26:42Z</time>
      </trkpt>
      <trkpt lat="49.65175" lon="4.99972">
        <ele>153.47</ele>
        <time>2019-02-19T15:26:45Z</time>
      </trkpt>
      <trkpt lat="49.65183" lon="4.99946">
        <ele>152.51</ele>
        <time>2019-02-19T15:27:02Z</time>
      </trkpt>
      <trkpt lat="49.65194" lon="4.99921">
        <ele>152.51</ele>
        <time>2019-02-19T15:27:19Z</time>
      </trkpt>
      <trkpt lat="49.65204" lon="4.99902">
        <ele>152.03</ele>
        <time>2019-02-19T15:27:35Z</time>
      </trkpt>
      <trkpt lat="49.65218" lon="4.99886">
        <ele>149.62</ele>
        <time>2019-02-19T15:27:52Z</time>
      </trkpt>
      <trkpt lat="49.65228" lon="4.99872">
        <ele>148.18</ele>
        <time>2019-02-19T15:28:07Z</time>
      </trkpt>
      <trkpt lat="49.6524" lon="4.99852">
        <ele>146.26</ele>
        <time>2019-02-19T15:28:24Z</time>
      </trkpt>
      <trkpt lat="49.65251" lon="4.99835">
        <ele>145.3</ele>
        <time>2019-02-19T15:28:39Z</time>
      </trkpt>
      <trkpt lat="49.65264" lon="4.99821">
        <ele>148.66</ele>
        <time>2019-02-19T15:28:54Z</time>
      </trkpt>
      <trkpt lat="49.65274" lon="4.99795">
        <ele>146.74</ele>
        <time>2019-02-19T15:29:11Z</time>
      </trkpt>
      <trkpt lat="49.6528" lon="4.99775">
        <ele>148.66</ele>
        <time>2019-02-19T15:29:24Z</time>
      </trkpt>
      <trkpt lat="49.65292" lon="4.9975">
        <ele>151.54</ele>
        <time>2019-02-19T15:29:42Z</time>
      </trkpt>
      <trkpt lat="49.65301" lon="4.99728">
        <ele>152.99</ele>
        <time>2019-02-19T15:29:59Z</time>
      </trkpt>
      <trkpt lat="49.6531" lon="4.99707">
        <ele>154.43</ele>
        <time>2019-02-19T15:30:14Z</time>
      </trkpt>
      <trkpt lat="49.65318" lon="4.99685">
        <ele>152.51</ele>
        <time>2019-02-19T15:30:29Z</time>
      </trkpt>
      <trkpt lat="49.65327" lon="4.99662">
        <ele>152.03</ele>
        <time>2019-02-19T15:30:44Z</time>
      </trkpt>
      <trkpt lat="49.65338" lon="4.9964">
        <ele>153.95</ele>
        <time>2019-02-19T15:31:00Z</time>
      </trkpt>
      <trkpt lat="49.65347" lon="4.99619">
        <ele>152.99</ele>
        <time>2019-02-19T15:31:16Z</time>
      </trkpt>
      <trkpt lat="49.65357" lon="4.996">
        <ele>151.06</ele>
        <time>2019-02-19T15:31:32Z</time>
      </trkpt>
      <trkpt lat="49.65372" lon="4.99575">
        <ele>152.51</ele>
        <time>2019-02-19T15:31:52Z</time>
      </trkpt>
      <trkpt lat="49.65388" lon="4.99548">
        <ele>152.99</ele>
        <time>2019-02-19T15:32:15Z</time>
      </trkpt>
      <trkpt lat="49.65402" lon="4.99522">
        <ele>154.43</ele>
        <time>2019-02-19T15:32:36Z</time>
      </trkpt>
      <trkpt lat="49.65413" lon="4.99501">
        <ele>153.47</ele>
        <time>2019-02-19T15:32:53Z</time>
      </trkpt>
      <trkpt lat="49.65427" lon="4.99479">
        <ele>152.99</ele>
        <time>2019-02-19T15:33:12Z</time>
      </trkpt>
      <trkpt lat="49.65442" lon="4.99456">
        <ele>153.95</ele>
        <time>2019-02-19T15:33:32Z</time>
      </trkpt>
      <trkpt lat="49.65455" lon="4.99432">
        <ele>154.91</ele>
        <time>2019-02-19T15:33:51Z</time>
      </trkpt>
      <trkpt lat="49.65468" lon="4.99411">
        <ele>154.91</ele>
        <time>2019-02-19T15:34:08Z</time>
      </trkpt>
      <trkpt lat="49.65483" lon="4.99387">
        <ele>156.83</ele>
        <time>2019-02-19T15:34:28Z</time>
      </trkpt>
      <trkpt lat="49.6549" lon="4.9938">
        <ele>157.31</ele>
        <time>2019-02-19T15:34:40Z</time>
      </trkpt>
      <trkpt lat="49.65506" lon="4.99349">
        <ele>156.83</ele>
        <time>2019-02-19T15:35:03Z</time>
      </trkpt>
      <trkpt lat="49.65521" lon="4.99326">
        <ele>157.31</ele>
        <time>2019-02-19T15:35:22Z</time>
      </trkpt>
      <trkpt lat="49.65537" lon="4.99301">
        <ele>159.72</ele>
        <time>2019-02-19T15:35:42Z</time>
      </trkpt>
      <trkpt lat="49.65554" lon="4.99273">
        <ele>158.75</ele>
        <time>2019-02-19T15:36:04Z</time>
      </trkpt>
      <trkpt lat="49.65568" lon="4.99249">
        <ele>157.31</ele>
        <time>2019-02-19T15:36:25Z</time>
      </trkpt>
      <trkpt lat="49.65564" lon="4.99237">
        <ele>155.87</ele>
        <time>2019-02-19T15:36:36Z</time>
      </trkpt>
      <trkpt lat="49.65554" lon="4.99225">
        <ele>155.39</ele>
        <time>2019-02-19T15:36:51Z</time>
      </trkpt>
      <trkpt lat="49.65554" lon="4.99225">
        <ele>154.43</ele>
        <time>2019-02-19T15:37:10Z</time>
      </trkpt>
      <trkpt lat="49.65554" lon="4.99225">
        <ele>154.43</ele>
        <time>2019-02-19T15:37:38Z</time>
      </trkpt>
      <trkpt lat="49.65554" lon="4.99226">
        <ele>154.43</ele>
        <time>2019-02-19T15:37:57Z</time>
      </trkpt>
      <trkpt lat="49.65554" lon="4.99225">
        <ele>154.43</ele>
        <time>2019-02-19T15:38:32Z</time>
      </trkpt>
      <trkpt lat="49.65548" lon="4.99224">
        <ele>154.91</ele>
        <time>2019-02-19T15:38:47Z</time>
      </trkpt>
      <trkpt lat="49.65542" lon="4.99221">
        <ele>154.43</ele>
        <time>2019-02-19T15:39:04Z</time>
      </trkpt>
      <trkpt lat="49.65521" lon="4.99207">
        <ele>152.03</ele>
        <time>2019-02-19T15:39:24Z</time>
      </trkpt>
      <trkpt lat="49.65508" lon="4.992">
        <ele>152.03</ele>
        <time>2019-02-19T15:39:37Z</time>
      </trkpt>
      <trkpt lat="49.65498" lon="4.99196">
        <ele>152.03</ele>
        <time>2019-02-19T15:39:46Z</time>
      </trkpt>
      <trkpt lat="49.65496" lon="4.99198">
        <ele>152.51</ele>
        <time>2019-02-19T15:39:49Z</time>
      </trkpt>
      <trkpt lat="49.65487" lon="4.99229">
        <ele>153.47</ele>
        <time>2019-02-19T15:40:09Z</time>
      </trkpt>
      <trkpt lat="49.65477" lon="4.99262">
        <ele>153.95</ele>
        <time>2019-02-19T15:40:31Z</time>
      </trkpt>
      <trkpt lat="49.65465" lon="4.99285">
        <ele>154.43</ele>
        <time>2019-02-19T15:40:49Z</time>
      </trkpt>
      <trkpt lat="49.65458" lon="4.99284">
        <ele>153.95</ele>
        <time>2019-02-19T15:40:56Z</time>
      </trkpt>
      <trkpt lat="49.65442" lon="4.99266">
        <ele>153.95</ele>
        <time>2019-02-19T15:41:16Z</time>
      </trkpt>
      <trkpt lat="49.65428" lon="4.9924">
        <ele>149.62</ele>
        <time>2019-02-19T15:41:38Z</time>
      </trkpt>
      <trkpt lat="49.65421" lon="4.99227">
        <ele>145.3</ele>
        <time>2019-02-19T15:41:49Z</time>
      </trkpt>
      <trkpt lat="49.65405" lon="4.99204">
        <ele>145.78</ele>
        <time>2019-02-19T15:42:09Z</time>
      </trkpt>
      <trkpt lat="49.65385" lon="4.99185">
        <ele>147.7</ele>
        <time>2019-02-19T15:42:30Z</time>
      </trkpt>
      <trkpt lat="49.6538" lon="4.9919">
        <ele>148.18</ele>
        <time>2019-02-19T15:42:35Z</time>
      </trkpt>
      <trkpt lat="49.65376" lon="4.99196">
        <ele>149.62</ele>
        <time>2019-02-19T15:42:41Z</time>
      </trkpt>
      <trkpt lat="49.65372" lon="4.99187">
        <ele>150.58</ele>
        <time>2019-02-19T15:42:48Z</time>
      </trkpt>
      <trkpt lat="49.65372" lon="4.99174">
        <ele>151.54</ele>
        <time>2019-02-19T15:42:58Z</time>
      </trkpt>
      <trkpt lat="49.6536" lon="4.99148">
        <ele>151.06</ele>
        <time>2019-02-19T15:43:16Z</time>
      </trkpt>
      <trkpt lat="49.65345" lon="4.99121">
        <ele>151.54</ele>
        <time>2019-02-19T15:43:37Z</time>
      </trkpt>
      <trkpt lat="49.65344" lon="4.99118">
        <ele>151.54</ele>
        <time>2019-02-19T15:43:39Z</time>
      </trkpt>
      <trkpt lat="49.65334" lon="4.9909">
        <ele>152.03</ele>
        <time>2019-02-19T15:43:58Z</time>
      </trkpt>
      <trkpt lat="49.65324" lon="4.99058">
        <ele>151.54</ele>
        <time>2019-02-19T15:44:20Z</time>
      </trkpt>
      <trkpt lat="49.6531" lon="4.99033">
        <ele>151.54</ele>
        <time>2019-02-19T15:44:39Z</time>
      </trkpt>
      <trkpt lat="49.65292" lon="4.99014">
        <ele>152.51</ele>
        <time>2019-02-19T15:44:58Z</time>
      </trkpt>
      <trkpt lat="49.65275" lon="4.98998">
        <ele>152.03</ele>
        <time>2019-02-19T15:45:15Z</time>
      </trkpt>
      <trkpt lat="49.65253" lon="4.9898">
        <ele>152.99</ele>
        <time>2019-02-19T15:45:38Z</time>
      </trkpt>
      <trkpt lat="49.65233" lon="4.98963">
        <ele>152.03</ele>
        <time>2019-02-19T15:45:59Z</time>
      </trkpt>
      <trkpt lat="49.65214" lon="4.98946">
        <ele>152.51</ele>
        <time>2019-02-19T15:46:19Z</time>
      </trkpt>
      <trkpt lat="49.65199" lon="4.98933">
        <ele>152.03</ele>
        <time>2019-02-19T15:46:35Z</time>
      </trkpt>
      <trkpt lat="49.65181" lon="4.98916">
        <ele>152.03</ele>
        <time>2019-02-19T15:46:55Z</time>
      </trkpt>
      <trkpt lat="49.65165" lon="4.98899">
        <ele>150.58</ele>
        <time>2019-02-19T15:47:13Z</time>
      </trkpt>
      <trkpt lat="49.65148" lon="4.98884">
        <ele>149.62</ele>
        <time>2019-02-19T15:47:31Z</time>
      </trkpt>
      <trkpt lat="49.65134" lon="4.9887">
        <ele>149.14</ele>
        <time>2019-02-19T15:47:47Z</time>
      </trkpt>
      <trkpt lat="49.65119" lon="4.98856">
        <ele>150.58</ele>
        <time>2019-02-19T15:48:03Z</time>
      </trkpt>
      <trkpt lat="49.65102" lon="4.9884">
        <ele>150.58</ele>
        <time>2019-02-19T15:48:21Z</time>
      </trkpt>
      <trkpt lat="49.65079" lon="4.98818">
        <ele>151.54</ele>
        <time>2019-02-19T15:48:45Z</time>
      </trkpt>
      <trkpt lat="49.6506" lon="4.98799">
        <ele>151.54</ele>
        <time>2019-02-19T15:49:04Z</time>
      </trkpt>
      <trkpt lat="49.65042" lon="4.98779">
        <ele>150.58</ele>
        <time>2019-02-19T15:49:24Z</time>
      </trkpt>
      <trkpt lat="49.65027" lon="4.98767">
        <ele>150.58</ele>
        <time>2019-02-19T15:49:40Z</time>
      </trkpt>
      <trkpt lat="49.65006" lon="4.98747">
        <ele>151.06</ele>
        <time>2019-02-19T15:50:02Z</time>
      </trkpt>
      <trkpt lat="49.64986" lon="4.98728">
        <ele>152.51</ele>
        <time>2019-02-19T15:50:23Z</time>
      </trkpt>
      <trkpt lat="49.64965" lon="4.98708">
        <ele>154.43</ele>
        <time>2019-02-19T15:50:44Z</time>
      </trkpt>
      <trkpt lat="49.64942" lon="4.98687">
        <ele>155.39</ele>
        <time>2019-02-19T15:51:06Z</time>
      </trkpt>
      <trkpt lat="49.64922" lon="4.98677">
        <ele>153.95</ele>
        <time>2019-02-19T15:51:27Z</time>
      </trkpt>
      <trkpt lat="49.64902" lon="4.98668">
        <ele>152.51</ele>
        <time>2019-02-19T15:51:46Z</time>
      </trkpt>
      <trkpt lat="49.64881" lon="4.98651">
        <ele>151.54</ele>
        <time>2019-02-19T15:52:06Z</time>
      </trkpt>
      <trkpt lat="49.64878" lon="4.98648">
        <ele>151.54</ele>
        <time>2019-02-19T15:52:09Z</time>
      </trkpt>
      <trkpt lat="49.64873" lon="4.98645">
        <ele>152.03</ele>
        <time>2019-02-19T15:52:13Z</time>
      </trkpt>
      <trkpt lat="49.6485" lon="4.9863">
        <ele>155.39</ele>
        <time>2019-02-19T15:52:34Z</time>
      </trkpt>
      <trkpt lat="49.64828" lon="4.98617">
        <ele>156.83</ele>
        <time>2019-02-19T15:52:54Z</time>
      </trkpt>
      <trkpt lat="49.64812" lon="4.98606">
        <ele>155.87</ele>
        <time>2019-02-19T15:53:11Z</time>
      </trkpt>
      <trkpt lat="49.64807" lon="4.98602">
        <ele>155.87</ele>
        <time>2019-02-19T15:53:15Z</time>
      </trkpt>
      <trkpt lat="49.64782" lon="4.9859">
        <ele>159.72</ele>
        <time>2019-02-19T15:53:38Z</time>
      </trkpt>
      <trkpt lat="49.64764" lon="4.98578">
        <ele>157.79</ele>
        <time>2019-02-19T15:53:55Z</time>
      </trkpt>
      <trkpt lat="49.64746" lon="4.98569">
        <ele>153.47</ele>
        <time>2019-02-19T15:54:13Z</time>
      </trkpt>
      <trkpt lat="49.64729" lon="4.98562">
        <ele>152.03</ele>
        <time>2019-02-19T15:54:30Z</time>
      </trkpt>
      <trkpt lat="49.64721" lon="4.98558">
        <ele>150.58</ele>
        <time>2019-02-19T15:54:39Z</time>
      </trkpt>
      <trkpt lat="49.64696" lon="4.98544">
        <ele>151.06</ele>
        <time>2019-02-19T15:55:01Z</time>
      </trkpt>
      <trkpt lat="49.64679" lon="4.98535">
        <ele>150.1</ele>
        <time>2019-02-19T15:55:19Z</time>
      </trkpt>
      <trkpt lat="49.64656" lon="4.98524">
        <ele>152.99</ele>
        <time>2019-02-19T15:55:40Z</time>
      </trkpt>
      <trkpt lat="49.64648" lon="4.98519">
        <ele>153.95</ele>
        <time>2019-02-19T15:55:48Z</time>
      </trkpt>
      <trkpt lat="49.64622" lon="4.98504">
        <ele>155.87</ele>
        <time>2019-02-19T15:56:13Z</time>
      </trkpt>
      <trkpt lat="49.64603" lon="4.98494">
        <ele>157.31</ele>
        <time>2019-02-19T15:56:31Z</time>
      </trkpt>
      <trkpt lat="49.64583" lon="4.98479">
        <ele>154.91</ele>
        <time>2019-02-19T15:56:50Z</time>
      </trkpt>
      <trkpt lat="49.64563" lon="4.98468">
        <ele>156.35</ele>
        <time>2019-02-19T15:57:09Z</time>
      </trkpt>
      <trkpt lat="49.64545" lon="4.98458">
        <ele>153.47</ele>
        <time>2019-02-19T15:57:28Z</time>
      </trkpt>
      <trkpt lat="49.64533" lon="4.98455">
        <ele>153.47</ele>
        <time>2019-02-19T15:57:42Z</time>
      </trkpt>
      <trkpt lat="49.64524" lon="4.9845">
        <ele>151.06</ele>
        <time>2019-02-19T15:57:51Z</time>
      </trkpt>
      <trkpt lat="49.64506" lon="4.9844">
        <ele>152.51</ele>
        <time>2019-02-19T15:58:08Z</time>
      </trkpt>
      <trkpt lat="49.64488" lon="4.98429">
        <ele>147.7</ele>
        <time>2019-02-19T15:58:27Z</time>
      </trkpt>
      <trkpt lat="49.64476" lon="4.98421">
        <ele>146.74</ele>
        <time>2019-02-19T15:58:41Z</time>
      </trkpt>
      <trkpt lat="49.64471" lon="4.98417">
        <ele>145.3</ele>
        <time>2019-02-19T15:58:46Z</time>
      </trkpt>
      <trkpt lat="49.64452" lon="4.98403">
        <ele>144.34</ele>
        <time>2019-02-19T15:59:04Z</time>
      </trkpt>
      <trkpt lat="49.64431" lon="4.98392">
        <ele>148.18</ele>
        <time>2019-02-19T15:59:21Z</time>
      </trkpt>
      <trkpt lat="49.64409" lon="4.98375">
        <ele>153.47</ele>
        <time>2019-02-19T15:59:40Z</time>
      </trkpt>
      <trkpt lat="49.64394" lon="4.98364">
        <ele>150.58</ele>
        <time>2019-02-19T15:59:57Z</time>
      </trkpt>
      <trkpt lat="49.64377" lon="4.98354">
        <ele>150.1</ele>
        <time>2019-02-19T16:00:13Z</time>
      </trkpt>
      <trkpt lat="49.64358" lon="4.98339">
        <ele>149.14</ele>
        <time>2019-02-19T16:00:32Z</time>
      </trkpt>
      <trkpt lat="49.64341" lon="4.98325">
        <ele>150.1</ele>
        <time>2019-02-19T16:00:49Z</time>
      </trkpt>
      <trkpt lat="49.64325" lon="4.9831">
        <ele>151.54</ele>
        <time>2019-02-19T16:01:08Z</time>
      </trkpt>
      <trkpt lat="49.64312" lon="4.98299">
        <ele>152.99</ele>
        <time>2019-02-19T16:01:21Z</time>
      </trkpt>
      <trkpt lat="49.64294" lon="4.98284">
        <ele>153.95</ele>
        <time>2019-02-19T16:01:40Z</time>
      </trkpt>
      <trkpt lat="49.64277" lon="4.98269">
        <ele>152.03</ele>
        <time>2019-02-19T16:01:57Z</time>
      </trkpt>
      <trkpt lat="49.64256" lon="4.98254">
        <ele>154.91</ele>
        <time>2019-02-19T16:02:15Z</time>
      </trkpt>
      <trkpt lat="49.64234" lon="4.98231">
        <ele>156.35</ele>
        <time>2019-02-19T16:02:37Z</time>
      </trkpt>
      <trkpt lat="49.64215" lon="4.98213">
        <ele>157.31</ele>
        <time>2019-02-19T16:02:56Z</time>
      </trkpt>
      <trkpt lat="49.64202" lon="4.982">
        <ele>158.27</ele>
        <time>2019-02-19T16:03:11Z</time>
      </trkpt>
      <trkpt lat="49.64187" lon="4.98187">
        <ele>157.79</ele>
        <time>2019-02-19T16:03:27Z</time>
      </trkpt>
      <trkpt lat="49.64171" lon="4.98171">
        <ele>156.83</ele>
        <time>2019-02-19T16:03:44Z</time>
      </trkpt>
      <trkpt lat="49.64159" lon="4.98162">
        <ele>156.35</ele>
        <time>2019-02-19T16:04:01Z</time>
      </trkpt>
      <trkpt lat="49.64149" lon="4.98153">
        <ele>155.87</ele>
        <time>2019-02-19T16:04:14Z</time>
      </trkpt>
      <trkpt lat="49.64136" lon="4.98137">
        <ele>157.79</ele>
        <time>2019-02-19T16:04:30Z</time>
      </trkpt>
      <trkpt lat="49.64127" lon="4.98128">
        <ele>158.27</ele>
        <time>2019-02-19T16:04:43Z</time>
      </trkpt>
      <trkpt lat="49.64126" lon="4.98124">
        <ele>157.79</ele>
        <time>2019-02-19T16:05:02Z</time>
      </trkpt>
      <trkpt lat="49.64128" lon="4.98122">
        <ele>160.68</ele>
        <time>2019-02-19T16:05:25Z</time>
      </trkpt>
      <trkpt lat="49.64127" lon="4.98122">
        <ele>160.68</ele>
        <time>2019-02-19T16:05:53Z</time>
      </trkpt>
      <trkpt lat="49.64128" lon="4.98124">
        <ele>161.64</ele>
        <time>2019-02-19T16:06:10Z</time>
      </trkpt>
      <trkpt lat="49.64127" lon="4.98123">
        <ele>160.68</ele>
        <time>2019-02-19T16:06:33Z</time>
      </trkpt>
      <trkpt lat="49.64125" lon="4.98123">
        <ele>160.2</ele>
        <time>2019-02-19T16:06:57Z</time>
      </trkpt>
      <trkpt lat="49.64118" lon="4.98118">
        <ele>161.64</ele>
        <time>2019-02-19T16:07:12Z</time>
      </trkpt>
      <trkpt lat="49.64106" lon="4.98109">
        <ele>160.68</ele>
        <time>2019-02-19T16:07:26Z</time>
      </trkpt>
      <trkpt lat="49.64089" lon="4.98097">
        <ele>161.16</ele>
        <time>2019-02-19T16:07:44Z</time>
      </trkpt>
      <trkpt lat="49.64075" lon="4.98083">
        <ele>163.56</ele>
        <time>2019-02-19T16:07:58Z</time>
      </trkpt>
      <trkpt lat="49.64059" lon="4.98067">
        <ele>163.08</ele>
        <time>2019-02-19T16:08:15Z</time>
      </trkpt>
      <trkpt lat="49.64044" lon="4.98054">
        <ele>161.64</ele>
        <time>2019-02-19T16:08:32Z</time>
      </trkpt>
      <trkpt lat="49.64028" lon="4.98039">
        <ele>161.16</ele>
        <time>2019-02-19T16:08:50Z</time>
      </trkpt>
      <trkpt lat="49.64013" lon="4.98024">
        <ele>163.56</ele>
        <time>2019-02-19T16:09:07Z</time>
      </trkpt>
      <trkpt lat="49.63999" lon="4.98011">
        <ele>165</ele>
        <time>2019-02-19T16:09:23Z</time>
      </trkpt>
      <trkpt lat="49.63984" lon="4.97998">
        <ele>165</ele>
        <time>2019-02-19T16:09:38Z</time>
      </trkpt>
      <trkpt lat="49.6397" lon="4.97983">
        <ele>164.52</ele>
        <time>2019-02-19T16:09:55Z</time>
      </trkpt>
      <trkpt lat="49.63955" lon="4.9797">
        <ele>165</ele>
        <time>2019-02-19T16:10:11Z</time>
      </trkpt>
      <trkpt lat="49.63941" lon="4.97955">
        <ele>165.96</ele>
        <time>2019-02-19T16:10:26Z</time>
      </trkpt>
      <trkpt lat="49.63928" lon="4.97943">
        <ele>163.56</ele>
        <time>2019-02-19T16:10:41Z</time>
      </trkpt>
      <trkpt lat="49.63916" lon="4.97933">
        <ele>162.6</ele>
        <time>2019-02-19T16:10:56Z</time>
      </trkpt>
      <trkpt lat="49.63901" lon="4.97919">
        <ele>161.16</ele>
        <time>2019-02-19T16:11:14Z</time>
      </trkpt>
      <trkpt lat="49.63889" lon="4.97908">
        <ele>159.72</ele>
        <time>2019-02-19T16:11:29Z</time>
      </trkpt>
      <trkpt lat="49.63875" lon="4.97895">
        <ele>157.79</ele>
        <time>2019-02-19T16:11:44Z</time>
      </trkpt>
      <trkpt lat="49.6386" lon="4.97881">
        <ele>157.31</ele>
        <time>2019-02-19T16:12:01Z</time>
      </trkpt>
      <trkpt lat="49.63842" lon="4.97865">
        <ele>159.24</ele>
        <time>2019-02-19T16:12:20Z</time>
      </trkpt>
      <trkpt lat="49.63828" lon="4.97852">
        <ele>159.24</ele>
        <time>2019-02-19T16:12:35Z</time>
      </trkpt>
      <trkpt lat="49.63816" lon="4.97841">
        <ele>160.2</ele>
        <time>2019-02-19T16:12:50Z</time>
      </trkpt>
      <trkpt lat="49.63801" lon="4.97826">
        <ele>160.68</ele>
        <time>2019-02-19T16:13:08Z</time>
      </trkpt>
      <trkpt lat="49.63787" lon="4.9781">
        <ele>160.68</ele>
        <time>2019-02-19T16:13:24Z</time>
      </trkpt>
      <trkpt lat="49.63772" lon="4.97796">
        <ele>161.64</ele>
        <time>2019-02-19T16:13:39Z</time>
      </trkpt>
      <trkpt lat="49.63765" lon="4.97789">
        <ele>163.08</ele>
        <time>2019-02-19T16:13:55Z</time>
      </trkpt>
      <trkpt lat="49.63763" lon="4.97787">
        <ele>163.08</ele>
        <time>2019-02-19T16:13:59Z</time>
      </trkpt>
      <trkpt lat="49.63749" lon="4.97776">
        <ele>162.12</ele>
        <time>2019-02-19T16:14:15Z</time>
      </trkpt>
      <trkpt lat="49.63735" lon="4.97764">
        <ele>162.12</ele>
        <time>2019-02-19T16:14:31Z</time>
      </trkpt>
      <trkpt lat="49.63718" lon="4.97752">
        <ele>161.64</ele>
        <time>2019-02-19T16:14:48Z</time>
      </trkpt>
      <trkpt lat="49.63711" lon="4.97745">
        <ele>162.12</ele>
        <time>2019-02-19T16:15:01Z</time>
      </trkpt>
      <trkpt lat="49.63697" lon="4.97736">
        <ele>162.6</ele>
        <time>2019-02-19T16:15:18Z</time>
      </trkpt>
      <trkpt lat="49.63684" lon="4.97725">
        <ele>165</ele>
        <time>2019-02-19T16:15:35Z</time>
      </trkpt>
      <trkpt lat="49.63668" lon="4.97713">
        <ele>167.41</ele>
        <time>2019-02-19T16:15:52Z</time>
      </trkpt>
      <trkpt lat="49.63659" lon="4.97704">
        <ele>167.89</ele>
        <time>2019-02-19T16:16:07Z</time>
      </trkpt>
      <trkpt lat="49.63648" lon="4.97695">
        <ele>167.89</ele>
        <time>2019-02-19T16:16:24Z</time>
      </trkpt>
      <trkpt lat="49.63632" lon="4.9768">
        <ele>168.37</ele>
        <time>2019-02-19T16:16:42Z</time>
      </trkpt>
      <trkpt lat="49.63615" lon="4.97665">
        <ele>168.37</ele>
        <time>2019-02-19T16:17:02Z</time>
      </trkpt>
      <trkpt lat="49.6361" lon="4.97664">
        <ele>168.37</ele>
        <time>2019-02-19T16:17:08Z</time>
      </trkpt>
      <trkpt lat="49.63596" lon="4.97675">
        <ele>166.45</ele>
        <time>2019-02-19T16:17:26Z</time>
      </trkpt>
      <trkpt lat="49.63589" lon="4.97681">
        <ele>165</ele>
        <time>2019-02-19T16:17:34Z</time>
      </trkpt>
      <trkpt lat="49.63574" lon="4.97703">
        <ele>160.68</ele>
        <time>2019-02-19T16:17:55Z</time>
      </trkpt>
      <trkpt lat="49.63561" lon="4.97728">
        <ele>161.64</ele>
        <time>2019-02-19T16:18:15Z</time>
      </trkpt>
      <trkpt lat="49.63549" lon="4.97752">
        <ele>162.12</ele>
        <time>2019-02-19T16:18:35Z</time>
      </trkpt>
      <trkpt lat="49.6354" lon="4.97776">
        <ele>160.68</ele>
        <time>2019-02-19T16:18:54Z</time>
      </trkpt>
      <trkpt lat="49.63535" lon="4.97782">
        <ele>161.16</ele>
        <time>2019-02-19T16:19:00Z</time>
      </trkpt>
      <trkpt lat="49.6352" lon="4.978">
        <ele>163.08</ele>
        <time>2019-02-19T16:19:18Z</time>
      </trkpt>
      <trkpt lat="49.63504" lon="4.97818">
        <ele>163.56</ele>
        <time>2019-02-19T16:19:38Z</time>
      </trkpt>
      <trkpt lat="49.63489" lon="4.97834">
        <ele>162.6</ele>
        <time>2019-02-19T16:19:56Z</time>
      </trkpt>
      <trkpt lat="49.63485" lon="4.97847">
        <ele>159.24</ele>
        <time>2019-02-19T16:20:08Z</time>
      </trkpt>
      <trkpt lat="49.63471" lon="4.97867">
        <ele>163.08</ele>
        <time>2019-02-19T16:20:24Z</time>
      </trkpt>
      <trkpt lat="49.63457" lon="4.97887">
        <ele>167.89</ele>
        <time>2019-02-19T16:20:42Z</time>
      </trkpt>
      <trkpt lat="49.63447" lon="4.97899">
        <ele>166.93</ele>
        <time>2019-02-19T16:20:56Z</time>
      </trkpt>
      <trkpt lat="49.63429" lon="4.97905">
        <ele>166.93</ele>
        <time>2019-02-19T16:21:15Z</time>
      </trkpt>
      <trkpt lat="49.6341" lon="4.97917">
        <ele>171.73</ele>
        <time>2019-02-19T16:21:35Z</time>
      </trkpt>
      <trkpt lat="49.63393" lon="4.97934">
        <ele>169.81</ele>
        <time>2019-02-19T16:21:56Z</time>
      </trkpt>
      <trkpt lat="49.63393" lon="4.97947">
        <ele>168.85</ele>
        <time>2019-02-19T16:22:10Z</time>
      </trkpt>
      <trkpt lat="49.63393" lon="4.97948">
        <ele>168.85</ele>
        <time>2019-02-19T16:22:11Z</time>
      </trkpt>
      <trkpt lat="49.63401" lon="4.9797">
        <ele>171.73</ele>
        <time>2019-02-19T16:22:29Z</time>
      </trkpt>
      <trkpt lat="49.6341" lon="4.97993">
        <ele>174.14</ele>
        <time>2019-02-19T16:22:46Z</time>
      </trkpt>
      <trkpt lat="49.6342" lon="4.98007">
        <ele>174.62</ele>
        <time>2019-02-19T16:23:00Z</time>
      </trkpt>
      <trkpt lat="49.63435" lon="4.98033">
        <ele>176.54</ele>
        <time>2019-02-19T16:23:21Z</time>
      </trkpt>
      <trkpt lat="49.63451" lon="4.98049">
        <ele>178.46</ele>
        <time>2019-02-19T16:23:40Z</time>
      </trkpt>
      <trkpt lat="49.63454" lon="4.9805">
        <ele>177.98</ele>
        <time>2019-02-19T16:23:56Z</time>
      </trkpt>
      <trkpt lat="49.6345" lon="4.98055">
        <ele>182.79</ele>
        <time>2019-02-19T16:24:09Z</time>
      </trkpt>
    </trkseg>
  </trk>
</gpx>